<?xml version="1.0" encoding="UTF-8" standalone="no" ?>
<gpx xmlns="http://www.topografix.com/GPX/1/1" xmlns:xsi="http://www.w3.org/2001/XMLSchema-instance" xsi:schemaLocation="http://www.topografix.com/GPX/1/1 http://www.topografix.com/GPX/1/1/gpx.xsd" version="1.1" creator="VisuGPX - https://www.visugpx.com">
  <metadata>
    <name>05/08/2013 (1)</name>
    <desc><![CDATA[05/08/2013]]></desc>
  </metadata>
  <wpt lat="48.72367" lon="2.09873">
    <ele>159.8</ele>
    <name><![CDATA[Start]]></name>
    <desc><![CDATA[2013-08-05 05:06:39]]></desc>
  </wpt>
  <wpt lat="48.7626" lon="2.08354">
    <ele>159.1</ele>
    <name><![CDATA[Lap 1]]></name>
    <desc><![CDATA[9.06km, 32:45, 16.6kph]]></desc>
  </wpt>
  <wpt lat="48.7192" lon="2.09225">
    <ele>159.1</ele>
    <name><![CDATA[Lap 2]]></name>
    <desc><![CDATA[11.64km, 39:06, 17.9kph]]></desc>
  </wpt>
  <trk>
    <name><![CDATA[2013-08-05-05-06-39]]></name>
    <desc><![CDATA[71:51 - 20.7km]]></desc>
    <trkseg>
      <trkpt lat="48.72367" lon="2.09873">
        <ele>166.673</ele>
        <time>2013-08-05T05:06:39Z</time>
      </trkpt>
      <trkpt lat="48.72366" lon="2.09874">
        <ele>166.673</ele>
        <time>2013-08-05T05:06:40Z</time>
      </trkpt>
      <trkpt lat="48.72366" lon="2.09872">
        <ele>166.683</ele>
        <time>2013-08-05T05:06:42Z</time>
      </trkpt>
      <trkpt lat="48.72367" lon="2.09858">
        <ele>166.899</ele>
        <time>2013-08-05T05:06:48Z</time>
      </trkpt>
      <trkpt lat="48.72372" lon="2.09826">
        <ele>166.791</ele>
        <time>2013-08-05T05:06:56Z</time>
      </trkpt>
      <trkpt lat="48.72377" lon="2.09785">
        <ele>166.956</ele>
        <time>2013-08-05T05:07:05Z</time>
      </trkpt>
      <trkpt lat="48.72384" lon="2.09739">
        <ele>166.585</ele>
        <time>2013-08-05T05:07:14Z</time>
      </trkpt>
      <trkpt lat="48.72385" lon="2.09733">
        <ele>166.529</ele>
        <time>2013-08-05T05:07:15Z</time>
      </trkpt>
      <trkpt lat="48.72391" lon="2.09684">
        <ele>166.346</ele>
        <time>2013-08-05T05:07:24Z</time>
      </trkpt>
      <trkpt lat="48.72389" lon="2.09627">
        <ele>166.112</ele>
        <time>2013-08-05T05:07:34Z</time>
      </trkpt>
      <trkpt lat="48.72389" lon="2.09576">
        <ele>166.268</ele>
        <time>2013-08-05T05:07:43Z</time>
      </trkpt>
      <trkpt lat="48.7239" lon="2.09531">
        <ele>166.484</ele>
        <time>2013-08-05T05:07:51Z</time>
      </trkpt>
      <trkpt lat="48.72391" lon="2.09499">
        <ele>166.703</ele>
        <time>2013-08-05T05:07:58Z</time>
      </trkpt>
      <trkpt lat="48.72391" lon="2.09494">
        <ele>166.646</ele>
        <time>2013-08-05T05:07:59Z</time>
      </trkpt>
      <trkpt lat="48.72388" lon="2.09455">
        <ele>166.779</ele>
        <time>2013-08-05T05:08:07Z</time>
      </trkpt>
      <trkpt lat="48.72372" lon="2.09434">
        <ele>167.477</ele>
        <time>2013-08-05T05:08:14Z</time>
      </trkpt>
      <trkpt lat="48.7235" lon="2.09414">
        <ele>168.573</ele>
        <time>2013-08-05T05:08:23Z</time>
      </trkpt>
      <trkpt lat="48.72327" lon="2.09391">
        <ele>169.608</ele>
        <time>2013-08-05T05:08:32Z</time>
      </trkpt>
      <trkpt lat="48.72306" lon="2.0937">
        <ele>170.269</ele>
        <time>2013-08-05T05:08:40Z</time>
      </trkpt>
      <trkpt lat="48.72281" lon="2.09343">
        <ele>170.79</ele>
        <time>2013-08-05T05:08:49Z</time>
      </trkpt>
      <trkpt lat="48.7226" lon="2.09324">
        <ele>171.128</ele>
        <time>2013-08-05T05:08:56Z</time>
      </trkpt>
      <trkpt lat="48.72248" lon="2.09313">
        <ele>171.622</ele>
        <time>2013-08-05T05:09:00Z</time>
      </trkpt>
      <trkpt lat="48.72246" lon="2.0931">
        <ele>171.756</ele>
        <time>2013-08-05T05:09:01Z</time>
      </trkpt>
      <trkpt lat="48.72225" lon="2.0929">
        <ele>172.346</ele>
        <time>2013-08-05T05:09:08Z</time>
      </trkpt>
      <trkpt lat="48.72217" lon="2.09281">
        <ele>172.613</ele>
        <time>2013-08-05T05:09:11Z</time>
      </trkpt>
      <trkpt lat="48.72214" lon="2.09277">
        <ele>172.673</ele>
        <time>2013-08-05T05:09:12Z</time>
      </trkpt>
      <trkpt lat="48.72186" lon="2.09248">
        <ele>173.027</ele>
        <time>2013-08-05T05:09:21Z</time>
      </trkpt>
      <trkpt lat="48.72165" lon="2.09226">
        <ele>172.858</ele>
        <time>2013-08-05T05:09:28Z</time>
      </trkpt>
      <trkpt lat="48.72162" lon="2.09223">
        <ele>172.746</ele>
        <time>2013-08-05T05:09:29Z</time>
      </trkpt>
      <trkpt lat="48.72159" lon="2.0922">
        <ele>172.954</ele>
        <time>2013-08-05T05:09:30Z</time>
      </trkpt>
      <trkpt lat="48.72156" lon="2.09217">
        <ele>172.986</ele>
        <time>2013-08-05T05:09:31Z</time>
      </trkpt>
      <trkpt lat="48.72154" lon="2.09213">
        <ele>172.957</ele>
        <time>2013-08-05T05:09:32Z</time>
      </trkpt>
      <trkpt lat="48.72158" lon="2.09194">
        <ele>172.86</ele>
        <time>2013-08-05T05:09:36Z</time>
      </trkpt>
      <trkpt lat="48.7218" lon="2.0916">
        <ele>172.858</ele>
        <time>2013-08-05T05:09:44Z</time>
      </trkpt>
      <trkpt lat="48.72206" lon="2.09126">
        <ele>173.098</ele>
        <time>2013-08-05T05:09:53Z</time>
      </trkpt>
      <trkpt lat="48.72235" lon="2.09087">
        <ele>173.189</ele>
        <time>2013-08-05T05:10:03Z</time>
      </trkpt>
      <trkpt lat="48.72261" lon="2.09056">
        <ele>173.246</ele>
        <time>2013-08-05T05:10:12Z</time>
      </trkpt>
      <trkpt lat="48.72277" lon="2.09037">
        <ele>173.053</ele>
        <time>2013-08-05T05:10:17Z</time>
      </trkpt>
      <trkpt lat="48.72299" lon="2.09006">
        <ele>173.326</ele>
        <time>2013-08-05T05:10:25Z</time>
      </trkpt>
      <trkpt lat="48.72309" lon="2.08991">
        <ele>173.622</ele>
        <time>2013-08-05T05:10:30Z</time>
      </trkpt>
      <trkpt lat="48.72313" lon="2.0898">
        <ele>173.79</ele>
        <time>2013-08-05T05:10:36Z</time>
      </trkpt>
      <trkpt lat="48.72313" lon="2.08979">
        <ele>173.808</ele>
        <time>2013-08-05T05:10:37Z</time>
      </trkpt>
      <trkpt lat="48.72316" lon="2.08976">
        <ele>174.229</ele>
        <time>2013-08-05T05:10:44Z</time>
      </trkpt>
      <trkpt lat="48.72319" lon="2.08973">
        <ele>174.296</ele>
        <time>2013-08-05T05:10:52Z</time>
      </trkpt>
      <trkpt lat="48.72329" lon="2.08954">
        <ele>174.343</ele>
        <time>2013-08-05T05:10:57Z</time>
      </trkpt>
      <trkpt lat="48.72357" lon="2.08902">
        <ele>174.625</ele>
        <time>2013-08-05T05:11:08Z</time>
      </trkpt>
      <trkpt lat="48.72376" lon="2.08863">
        <ele>174.976</ele>
        <time>2013-08-05T05:11:16Z</time>
      </trkpt>
      <trkpt lat="48.72395" lon="2.08813">
        <ele>175.266</ele>
        <time>2013-08-05T05:11:25Z</time>
      </trkpt>
      <trkpt lat="48.72421" lon="2.08743">
        <ele>175.647</ele>
        <time>2013-08-05T05:11:37Z</time>
      </trkpt>
      <trkpt lat="48.72442" lon="2.08695">
        <ele>176.18</ele>
        <time>2013-08-05T05:11:46Z</time>
      </trkpt>
      <trkpt lat="48.72466" lon="2.08643">
        <ele>176.677</ele>
        <time>2013-08-05T05:11:56Z</time>
      </trkpt>
      <trkpt lat="48.72484" lon="2.086">
        <ele>177.057</ele>
        <time>2013-08-05T05:12:04Z</time>
      </trkpt>
      <trkpt lat="48.72491" lon="2.08585">
        <ele>177.269</ele>
        <time>2013-08-05T05:12:07Z</time>
      </trkpt>
      <trkpt lat="48.72503" lon="2.08573">
        <ele>177.46</ele>
        <time>2013-08-05T05:12:11Z</time>
      </trkpt>
      <trkpt lat="48.72519" lon="2.08579">
        <ele>177.532</ele>
        <time>2013-08-05T05:12:15Z</time>
      </trkpt>
      <trkpt lat="48.72554" lon="2.08611">
        <ele>177.449</ele>
        <time>2013-08-05T05:12:24Z</time>
      </trkpt>
      <trkpt lat="48.72591" lon="2.08644">
        <ele>177.185</ele>
        <time>2013-08-05T05:12:33Z</time>
      </trkpt>
      <trkpt lat="48.72618" lon="2.08681">
        <ele>176.935</ele>
        <time>2013-08-05T05:12:41Z</time>
      </trkpt>
      <trkpt lat="48.7262" lon="2.08687">
        <ele>176.926</ele>
        <time>2013-08-05T05:12:42Z</time>
      </trkpt>
      <trkpt lat="48.72649" lon="2.08724">
        <ele>176.495</ele>
        <time>2013-08-05T05:12:50Z</time>
      </trkpt>
      <trkpt lat="48.72682" lon="2.08754">
        <ele>176.071</ele>
        <time>2013-08-05T05:12:58Z</time>
      </trkpt>
      <trkpt lat="48.727" lon="2.0878">
        <ele>175.941</ele>
        <time>2013-08-05T05:13:03Z</time>
      </trkpt>
      <trkpt lat="48.72722" lon="2.08796">
        <ele>175.571</ele>
        <time>2013-08-05T05:13:08Z</time>
      </trkpt>
      <trkpt lat="48.72727" lon="2.08799">
        <ele>175.486</ele>
        <time>2013-08-05T05:13:09Z</time>
      </trkpt>
      <trkpt lat="48.72741" lon="2.08821">
        <ele>175.248</ele>
        <time>2013-08-05T05:13:14Z</time>
      </trkpt>
      <trkpt lat="48.72744" lon="2.0883">
        <ele>175.262</ele>
        <time>2013-08-05T05:13:16Z</time>
      </trkpt>
      <trkpt lat="48.7275" lon="2.08861">
        <ele>175.53</ele>
        <time>2013-08-05T05:13:22Z</time>
      </trkpt>
      <trkpt lat="48.72751" lon="2.08869">
        <ele>175.49</ele>
        <time>2013-08-05T05:13:24Z</time>
      </trkpt>
      <trkpt lat="48.72763" lon="2.08874">
        <ele>175.055</ele>
        <time>2013-08-05T05:13:29Z</time>
      </trkpt>
      <trkpt lat="48.72769" lon="2.08879">
        <ele>174.661</ele>
        <time>2013-08-05T05:13:31Z</time>
      </trkpt>
      <trkpt lat="48.72785" lon="2.08883">
        <ele>174.305</ele>
        <time>2013-08-05T05:13:35Z</time>
      </trkpt>
      <trkpt lat="48.72807" lon="2.08892">
        <ele>174.003</ele>
        <time>2013-08-05T05:13:40Z</time>
      </trkpt>
      <trkpt lat="48.72816" lon="2.08901">
        <ele>173.786</ele>
        <time>2013-08-05T05:13:43Z</time>
      </trkpt>
      <trkpt lat="48.72831" lon="2.08899">
        <ele>173.056</ele>
        <time>2013-08-05T05:13:47Z</time>
      </trkpt>
      <trkpt lat="48.72844" lon="2.0888">
        <ele>172.389</ele>
        <time>2013-08-05T05:13:50Z</time>
      </trkpt>
      <trkpt lat="48.72846" lon="2.08836">
        <ele>171.799</ele>
        <time>2013-08-05T05:13:56Z</time>
      </trkpt>
      <trkpt lat="48.72845" lon="2.0882">
        <ele>171.845</ele>
        <time>2013-08-05T05:13:58Z</time>
      </trkpt>
      <trkpt lat="48.7285" lon="2.08772">
        <ele>172.31</ele>
        <time>2013-08-05T05:14:04Z</time>
      </trkpt>
      <trkpt lat="48.72852" lon="2.08759">
        <ele>172.513</ele>
        <time>2013-08-05T05:14:06Z</time>
      </trkpt>
      <trkpt lat="48.72866" lon="2.08727">
        <ele>172.401</ele>
        <time>2013-08-05T05:14:11Z</time>
      </trkpt>
      <trkpt lat="48.72883" lon="2.08696">
        <ele>171.95</ele>
        <time>2013-08-05T05:14:16Z</time>
      </trkpt>
      <trkpt lat="48.72892" lon="2.08676">
        <ele>171.813</ele>
        <time>2013-08-05T05:14:19Z</time>
      </trkpt>
      <trkpt lat="48.72895" lon="2.08654">
        <ele>171.666</ele>
        <time>2013-08-05T05:14:22Z</time>
      </trkpt>
      <trkpt lat="48.72895" lon="2.08641">
        <ele>171.527</ele>
        <time>2013-08-05T05:14:24Z</time>
      </trkpt>
      <trkpt lat="48.72887" lon="2.08604">
        <ele>171.373</ele>
        <time>2013-08-05T05:14:29Z</time>
      </trkpt>
      <trkpt lat="48.72884" lon="2.08596">
        <ele>171.343</ele>
        <time>2013-08-05T05:14:30Z</time>
      </trkpt>
      <trkpt lat="48.72886" lon="2.08556">
        <ele>171.301</ele>
        <time>2013-08-05T05:14:35Z</time>
      </trkpt>
      <trkpt lat="48.72887" lon="2.08549">
        <ele>171.349</ele>
        <time>2013-08-05T05:14:36Z</time>
      </trkpt>
      <trkpt lat="48.72893" lon="2.08508">
        <ele>171.553</ele>
        <time>2013-08-05T05:14:42Z</time>
      </trkpt>
      <trkpt lat="48.72901" lon="2.08479">
        <ele>171.888</ele>
        <time>2013-08-05T05:14:46Z</time>
      </trkpt>
      <trkpt lat="48.7292" lon="2.08445">
        <ele>172.299</ele>
        <time>2013-08-05T05:14:52Z</time>
      </trkpt>
      <trkpt lat="48.72928" lon="2.08436">
        <ele>172.376</ele>
        <time>2013-08-05T05:14:54Z</time>
      </trkpt>
      <trkpt lat="48.72945" lon="2.08416">
        <ele>172.556</ele>
        <time>2013-08-05T05:14:59Z</time>
      </trkpt>
      <trkpt lat="48.72951" lon="2.08408">
        <ele>172.597</ele>
        <time>2013-08-05T05:15:01Z</time>
      </trkpt>
      <trkpt lat="48.72957" lon="2.084">
        <ele>172.753</ele>
        <time>2013-08-05T05:15:03Z</time>
      </trkpt>
      <trkpt lat="48.72976" lon="2.08375">
        <ele>173.011</ele>
        <time>2013-08-05T05:15:08Z</time>
      </trkpt>
      <trkpt lat="48.72999" lon="2.08345">
        <ele>173.45</ele>
        <time>2013-08-05T05:15:14Z</time>
      </trkpt>
      <trkpt lat="48.73014" lon="2.08327">
        <ele>173.606</ele>
        <time>2013-08-05T05:15:18Z</time>
      </trkpt>
      <trkpt lat="48.73029" lon="2.08309">
        <ele>173.566</ele>
        <time>2013-08-05T05:15:22Z</time>
      </trkpt>
      <trkpt lat="48.73034" lon="2.08301">
        <ele>173.44</ele>
        <time>2013-08-05T05:15:24Z</time>
      </trkpt>
      <trkpt lat="48.73057" lon="2.08273">
        <ele>173.81</ele>
        <time>2013-08-05T05:15:30Z</time>
      </trkpt>
      <trkpt lat="48.7306" lon="2.08269">
        <ele>173.976</ele>
        <time>2013-08-05T05:15:31Z</time>
      </trkpt>
      <trkpt lat="48.73066" lon="2.08262">
        <ele>174.202</ele>
        <time>2013-08-05T05:15:33Z</time>
      </trkpt>
      <trkpt lat="48.7308" lon="2.08245">
        <ele>174.579</ele>
        <time>2013-08-05T05:15:37Z</time>
      </trkpt>
      <trkpt lat="48.73099" lon="2.08227">
        <ele>174.823</ele>
        <time>2013-08-05T05:15:42Z</time>
      </trkpt>
      <trkpt lat="48.73118" lon="2.08206">
        <ele>175.328</ele>
        <time>2013-08-05T05:15:48Z</time>
      </trkpt>
      <trkpt lat="48.73137" lon="2.08172">
        <ele>175.411</ele>
        <time>2013-08-05T05:15:55Z</time>
      </trkpt>
      <trkpt lat="48.7315" lon="2.08159">
        <ele>175.29</ele>
        <time>2013-08-05T05:15:59Z</time>
      </trkpt>
      <trkpt lat="48.73172" lon="2.08175">
        <ele>174.553</ele>
        <time>2013-08-05T05:16:05Z</time>
      </trkpt>
      <trkpt lat="48.73185" lon="2.08185">
        <ele>174.189</ele>
        <time>2013-08-05T05:16:08Z</time>
      </trkpt>
      <trkpt lat="48.73213" lon="2.08209">
        <ele>172.176</ele>
        <time>2013-08-05T05:16:14Z</time>
      </trkpt>
      <trkpt lat="48.73232" lon="2.08227">
        <ele>169.052</ele>
        <time>2013-08-05T05:16:19Z</time>
      </trkpt>
      <trkpt lat="48.73242" lon="2.08244">
        <ele>166.654</ele>
        <time>2013-08-05T05:16:23Z</time>
      </trkpt>
      <trkpt lat="48.73259" lon="2.08276">
        <ele>163.28</ele>
        <time>2013-08-05T05:16:27Z</time>
      </trkpt>
      <trkpt lat="48.73263" lon="2.08284">
        <ele>162.125</ele>
        <time>2013-08-05T05:16:28Z</time>
      </trkpt>
      <trkpt lat="48.7328" lon="2.08318">
        <ele>156.859</ele>
        <time>2013-08-05T05:16:33Z</time>
      </trkpt>
      <trkpt lat="48.73294" lon="2.08343">
        <ele>153.26</ele>
        <time>2013-08-05T05:16:36Z</time>
      </trkpt>
      <trkpt lat="48.7333" lon="2.08387">
        <ele>146.793</ele>
        <time>2013-08-05T05:16:41Z</time>
      </trkpt>
      <trkpt lat="48.73354" lon="2.08422">
        <ele>142.003</ele>
        <time>2013-08-05T05:16:45Z</time>
      </trkpt>
      <trkpt lat="48.73362" lon="2.08434">
        <ele>140.043</ele>
        <time>2013-08-05T05:16:47Z</time>
      </trkpt>
      <trkpt lat="48.73373" lon="2.08457">
        <ele>136.568</ele>
        <time>2013-08-05T05:16:52Z</time>
      </trkpt>
      <trkpt lat="48.73385" lon="2.08457">
        <ele>135.614</ele>
        <time>2013-08-05T05:16:55Z</time>
      </trkpt>
      <trkpt lat="48.7342" lon="2.08431">
        <ele>134.274</ele>
        <time>2013-08-05T05:17:03Z</time>
      </trkpt>
      <trkpt lat="48.73444" lon="2.08405">
        <ele>134.56</ele>
        <time>2013-08-05T05:17:09Z</time>
      </trkpt>
      <trkpt lat="48.7346" lon="2.08374">
        <ele>133.514</ele>
        <time>2013-08-05T05:17:13Z</time>
      </trkpt>
      <trkpt lat="48.73482" lon="2.08354">
        <ele>131.76</ele>
        <time>2013-08-05T05:17:17Z</time>
      </trkpt>
      <trkpt lat="48.73524" lon="2.08343">
        <ele>131.171</ele>
        <time>2013-08-05T05:17:24Z</time>
      </trkpt>
      <trkpt lat="48.73559" lon="2.0832">
        <ele>130.066</ele>
        <time>2013-08-05T05:17:30Z</time>
      </trkpt>
      <trkpt lat="48.73569" lon="2.08312">
        <ele>129.657</ele>
        <time>2013-08-05T05:17:32Z</time>
      </trkpt>
      <trkpt lat="48.7358" lon="2.08305">
        <ele>129.193</ele>
        <time>2013-08-05T05:17:34Z</time>
      </trkpt>
      <trkpt lat="48.73627" lon="2.08294">
        <ele>128.474</ele>
        <time>2013-08-05T05:17:42Z</time>
      </trkpt>
      <trkpt lat="48.73659" lon="2.08291">
        <ele>128.981</ele>
        <time>2013-08-05T05:17:48Z</time>
      </trkpt>
      <trkpt lat="48.73704" lon="2.08286">
        <ele>130.618</ele>
        <time>2013-08-05T05:17:57Z</time>
      </trkpt>
      <trkpt lat="48.73713" lon="2.08283">
        <ele>131.056</ele>
        <time>2013-08-05T05:17:59Z</time>
      </trkpt>
      <trkpt lat="48.73754" lon="2.08256">
        <ele>132.553</ele>
        <time>2013-08-05T05:18:09Z</time>
      </trkpt>
      <trkpt lat="48.73758" lon="2.08253">
        <ele>132.545</ele>
        <time>2013-08-05T05:18:10Z</time>
      </trkpt>
      <trkpt lat="48.73786" lon="2.08215">
        <ele>131.907</ele>
        <time>2013-08-05T05:18:17Z</time>
      </trkpt>
      <trkpt lat="48.73807" lon="2.08182">
        <ele>131.331</ele>
        <time>2013-08-05T05:18:23Z</time>
      </trkpt>
      <trkpt lat="48.73831" lon="2.08148">
        <ele>131.16</ele>
        <time>2013-08-05T05:18:30Z</time>
      </trkpt>
      <trkpt lat="48.73846" lon="2.08128">
        <ele>131.199</ele>
        <time>2013-08-05T05:18:34Z</time>
      </trkpt>
      <trkpt lat="48.73878" lon="2.08095">
        <ele>131.011</ele>
        <time>2013-08-05T05:18:42Z</time>
      </trkpt>
      <trkpt lat="48.73882" lon="2.08092">
        <ele>130.988</ele>
        <time>2013-08-05T05:18:43Z</time>
      </trkpt>
      <trkpt lat="48.73903" lon="2.08101">
        <ele>130.827</ele>
        <time>2013-08-05T05:18:48Z</time>
      </trkpt>
      <trkpt lat="48.73922" lon="2.08119">
        <ele>130.828</ele>
        <time>2013-08-05T05:18:53Z</time>
      </trkpt>
      <trkpt lat="48.73934" lon="2.08127">
        <ele>131.094</ele>
        <time>2013-08-05T05:18:56Z</time>
      </trkpt>
      <trkpt lat="48.73943" lon="2.08132">
        <ele>131.15</ele>
        <time>2013-08-05T05:18:58Z</time>
      </trkpt>
      <trkpt lat="48.73963" lon="2.08132">
        <ele>131.171</ele>
        <time>2013-08-05T05:19:03Z</time>
      </trkpt>
      <trkpt lat="48.7397" lon="2.08127">
        <ele>131.127</ele>
        <time>2013-08-05T05:19:05Z</time>
      </trkpt>
      <trkpt lat="48.73984" lon="2.08112">
        <ele>131.165</ele>
        <time>2013-08-05T05:19:09Z</time>
      </trkpt>
      <trkpt lat="48.73991" lon="2.08102">
        <ele>131.191</ele>
        <time>2013-08-05T05:19:11Z</time>
      </trkpt>
      <trkpt lat="48.73993" lon="2.08073">
        <ele>131.299</ele>
        <time>2013-08-05T05:19:16Z</time>
      </trkpt>
      <trkpt lat="48.73994" lon="2.08066">
        <ele>131.317</ele>
        <time>2013-08-05T05:19:17Z</time>
      </trkpt>
      <trkpt lat="48.73997" lon="2.08037">
        <ele>131.463</ele>
        <time>2013-08-05T05:19:21Z</time>
      </trkpt>
      <trkpt lat="48.74007" lon="2.0799">
        <ele>131.366</ele>
        <time>2013-08-05T05:19:28Z</time>
      </trkpt>
      <trkpt lat="48.74015" lon="2.07965">
        <ele>131.335</ele>
        <time>2013-08-05T05:19:32Z</time>
      </trkpt>
      <trkpt lat="48.74025" lon="2.07938">
        <ele>131.518</ele>
        <time>2013-08-05T05:19:37Z</time>
      </trkpt>
      <trkpt lat="48.74035" lon="2.07913">
        <ele>131.682</ele>
        <time>2013-08-05T05:19:42Z</time>
      </trkpt>
      <trkpt lat="48.74043" lon="2.07893">
        <ele>131.608</ele>
        <time>2013-08-05T05:19:46Z</time>
      </trkpt>
      <trkpt lat="48.74057" lon="2.07892">
        <ele>131.323</ele>
        <time>2013-08-05T05:19:50Z</time>
      </trkpt>
      <trkpt lat="48.74088" lon="2.07905">
        <ele>130.368</ele>
        <time>2013-08-05T05:19:56Z</time>
      </trkpt>
      <trkpt lat="48.74106" lon="2.07917">
        <ele>130.227</ele>
        <time>2013-08-05T05:20:01Z</time>
      </trkpt>
      <trkpt lat="48.74123" lon="2.07928">
        <ele>130.528</ele>
        <time>2013-08-05T05:20:05Z</time>
      </trkpt>
      <trkpt lat="48.74131" lon="2.07936">
        <ele>130.742</ele>
        <time>2013-08-05T05:20:07Z</time>
      </trkpt>
      <trkpt lat="48.74144" lon="2.07945">
        <ele>131.101</ele>
        <time>2013-08-05T05:20:11Z</time>
      </trkpt>
      <trkpt lat="48.74162" lon="2.07946">
        <ele>131.83</ele>
        <time>2013-08-05T05:20:17Z</time>
      </trkpt>
      <trkpt lat="48.7418" lon="2.07946">
        <ele>132.686</ele>
        <time>2013-08-05T05:20:23Z</time>
      </trkpt>
      <trkpt lat="48.74197" lon="2.07942">
        <ele>133.52</ele>
        <time>2013-08-05T05:20:28Z</time>
      </trkpt>
      <trkpt lat="48.74208" lon="2.07926">
        <ele>134.378</ele>
        <time>2013-08-05T05:20:33Z</time>
      </trkpt>
      <trkpt lat="48.74217" lon="2.07902">
        <ele>134.566</ele>
        <time>2013-08-05T05:20:38Z</time>
      </trkpt>
      <trkpt lat="48.74213" lon="2.07878">
        <ele>134.588</ele>
        <time>2013-08-05T05:20:43Z</time>
      </trkpt>
      <trkpt lat="48.74213" lon="2.07873">
        <ele>134.605</ele>
        <time>2013-08-05T05:20:44Z</time>
      </trkpt>
      <trkpt lat="48.74214" lon="2.07835">
        <ele>134.742</ele>
        <time>2013-08-05T05:20:50Z</time>
      </trkpt>
      <trkpt lat="48.74219" lon="2.07809">
        <ele>135.327</ele>
        <time>2013-08-05T05:20:55Z</time>
      </trkpt>
      <trkpt lat="48.74228" lon="2.07789">
        <ele>136.28</ele>
        <time>2013-08-05T05:21:00Z</time>
      </trkpt>
      <trkpt lat="48.74238" lon="2.0777">
        <ele>138.12</ele>
        <time>2013-08-05T05:21:07Z</time>
      </trkpt>
      <trkpt lat="48.74239" lon="2.07769">
        <ele>138.143</ele>
        <time>2013-08-05T05:21:08Z</time>
      </trkpt>
      <trkpt lat="48.7425" lon="2.07756">
        <ele>140.084</ele>
        <time>2013-08-05T05:21:15Z</time>
      </trkpt>
      <trkpt lat="48.74261" lon="2.07745">
        <ele>142.003</ele>
        <time>2013-08-05T05:21:22Z</time>
      </trkpt>
      <trkpt lat="48.7427" lon="2.07737">
        <ele>143.319</ele>
        <time>2013-08-05T05:21:27Z</time>
      </trkpt>
      <trkpt lat="48.74272" lon="2.07736">
        <ele>143.681</ele>
        <time>2013-08-05T05:21:28Z</time>
      </trkpt>
      <trkpt lat="48.7428" lon="2.07741">
        <ele>145.013</ele>
        <time>2013-08-05T05:21:34Z</time>
      </trkpt>
      <trkpt lat="48.74283" lon="2.07748">
        <ele>146.254</ele>
        <time>2013-08-05T05:21:40Z</time>
      </trkpt>
      <trkpt lat="48.74283" lon="2.07754">
        <ele>146.805</ele>
        <time>2013-08-05T05:21:43Z</time>
      </trkpt>
      <trkpt lat="48.7428" lon="2.07769">
        <ele>148.215</ele>
        <time>2013-08-05T05:21:50Z</time>
      </trkpt>
      <trkpt lat="48.74278" lon="2.07781">
        <ele>149.304</ele>
        <time>2013-08-05T05:21:55Z</time>
      </trkpt>
      <trkpt lat="48.74274" lon="2.07802">
        <ele>150.565</ele>
        <time>2013-08-05T05:22:03Z</time>
      </trkpt>
      <trkpt lat="48.74274" lon="2.07804">
        <ele>150.722</ele>
        <time>2013-08-05T05:22:04Z</time>
      </trkpt>
      <trkpt lat="48.74277" lon="2.07825">
        <ele>152.514</ele>
        <time>2013-08-05T05:22:13Z</time>
      </trkpt>
      <trkpt lat="48.74279" lon="2.07834">
        <ele>153.165</ele>
        <time>2013-08-05T05:22:17Z</time>
      </trkpt>
      <trkpt lat="48.74281" lon="2.07839">
        <ele>153.735</ele>
        <time>2013-08-05T05:22:20Z</time>
      </trkpt>
      <trkpt lat="48.74285" lon="2.07845">
        <ele>154.459</ele>
        <time>2013-08-05T05:22:26Z</time>
      </trkpt>
      <trkpt lat="48.74288" lon="2.07849">
        <ele>154.828</ele>
        <time>2013-08-05T05:22:29Z</time>
      </trkpt>
      <trkpt lat="48.74293" lon="2.07856">
        <ele>155.638</ele>
        <time>2013-08-05T05:22:34Z</time>
      </trkpt>
      <trkpt lat="48.74297" lon="2.0786">
        <ele>156.328</ele>
        <time>2013-08-05T05:22:38Z</time>
      </trkpt>
      <trkpt lat="48.74308" lon="2.07869">
        <ele>157.622</ele>
        <time>2013-08-05T05:22:45Z</time>
      </trkpt>
      <trkpt lat="48.74316" lon="2.07877">
        <ele>158.596</ele>
        <time>2013-08-05T05:22:51Z</time>
      </trkpt>
      <trkpt lat="48.74325" lon="2.07886">
        <ele>159.517</ele>
        <time>2013-08-05T05:22:57Z</time>
      </trkpt>
      <trkpt lat="48.74327" lon="2.07887">
        <ele>159.682</ele>
        <time>2013-08-05T05:22:58Z</time>
      </trkpt>
      <trkpt lat="48.74336" lon="2.07894">
        <ele>160.839</ele>
        <time>2013-08-05T05:23:04Z</time>
      </trkpt>
      <trkpt lat="48.74345" lon="2.079">
        <ele>162.151</ele>
        <time>2013-08-05T05:23:12Z</time>
      </trkpt>
      <trkpt lat="48.74346" lon="2.079">
        <ele>162.514</ele>
        <time>2013-08-05T05:23:13Z</time>
      </trkpt>
      <trkpt lat="48.74346" lon="2.07901">
        <ele>162.539</ele>
        <time>2013-08-05T05:23:14Z</time>
      </trkpt>
      <trkpt lat="48.74348" lon="2.07902">
        <ele>162.73</ele>
        <time>2013-08-05T05:23:15Z</time>
      </trkpt>
      <trkpt lat="48.74351" lon="2.07907">
        <ele>163.319</ele>
        <time>2013-08-05T05:23:18Z</time>
      </trkpt>
      <trkpt lat="48.74354" lon="2.07908">
        <ele>163.532</ele>
        <time>2013-08-05T05:23:19Z</time>
      </trkpt>
      <trkpt lat="48.74355" lon="2.07908">
        <ele>163.704</ele>
        <time>2013-08-05T05:23:20Z</time>
      </trkpt>
      <trkpt lat="48.74356" lon="2.0791">
        <ele>163.976</ele>
        <time>2013-08-05T05:23:22Z</time>
      </trkpt>
      <trkpt lat="48.74359" lon="2.07915">
        <ele>164.926</ele>
        <time>2013-08-05T05:23:27Z</time>
      </trkpt>
      <trkpt lat="48.74365" lon="2.07919">
        <ele>165.737</ele>
        <time>2013-08-05T05:23:32Z</time>
      </trkpt>
      <trkpt lat="48.74367" lon="2.07921">
        <ele>165.842</ele>
        <time>2013-08-05T05:23:33Z</time>
      </trkpt>
      <trkpt lat="48.74371" lon="2.07927">
        <ele>166.451</ele>
        <time>2013-08-05T05:23:37Z</time>
      </trkpt>
      <trkpt lat="48.74375" lon="2.07931">
        <ele>166.825</ele>
        <time>2013-08-05T05:23:40Z</time>
      </trkpt>
      <trkpt lat="48.74383" lon="2.07934">
        <ele>167.875</ele>
        <time>2013-08-05T05:23:46Z</time>
      </trkpt>
      <trkpt lat="48.74393" lon="2.07938">
        <ele>168.667</ele>
        <time>2013-08-05T05:23:51Z</time>
      </trkpt>
      <trkpt lat="48.74396" lon="2.07939">
        <ele>168.998</ele>
        <time>2013-08-05T05:23:53Z</time>
      </trkpt>
      <trkpt lat="48.74418" lon="2.07946">
        <ele>170.929</ele>
        <time>2013-08-05T05:24:03Z</time>
      </trkpt>
      <trkpt lat="48.74438" lon="2.0795">
        <ele>172.302</ele>
        <time>2013-08-05T05:24:11Z</time>
      </trkpt>
      <trkpt lat="48.74456" lon="2.07952">
        <ele>173.49</ele>
        <time>2013-08-05T05:24:17Z</time>
      </trkpt>
      <trkpt lat="48.7447" lon="2.07954">
        <ele>174.446</ele>
        <time>2013-08-05T05:24:23Z</time>
      </trkpt>
      <trkpt lat="48.74474" lon="2.07954">
        <ele>175.027</ele>
        <time>2013-08-05T05:24:26Z</time>
      </trkpt>
      <trkpt lat="48.74483" lon="2.07955">
        <ele>175.902</ele>
        <time>2013-08-05T05:24:31Z</time>
      </trkpt>
      <trkpt lat="48.74502" lon="2.07969">
        <ele>176.494</ele>
        <time>2013-08-05T05:24:39Z</time>
      </trkpt>
      <trkpt lat="48.74513" lon="2.07981">
        <ele>176.301</ele>
        <time>2013-08-05T05:24:44Z</time>
      </trkpt>
      <trkpt lat="48.74523" lon="2.07993">
        <ele>176.634</ele>
        <time>2013-08-05T05:24:50Z</time>
      </trkpt>
      <trkpt lat="48.74532" lon="2.08007">
        <ele>177.233</ele>
        <time>2013-08-05T05:24:56Z</time>
      </trkpt>
      <trkpt lat="48.74533" lon="2.08021">
        <ele>177.249</ele>
        <time>2013-08-05T05:24:59Z</time>
      </trkpt>
      <trkpt lat="48.74531" lon="2.08044">
        <ele>176.676</ele>
        <time>2013-08-05T05:25:02Z</time>
      </trkpt>
      <trkpt lat="48.74527" lon="2.08068">
        <ele>175.939</ele>
        <time>2013-08-05T05:25:05Z</time>
      </trkpt>
      <trkpt lat="48.7454" lon="2.08073">
        <ele>175.67</ele>
        <time>2013-08-05T05:25:09Z</time>
      </trkpt>
      <trkpt lat="48.74545" lon="2.08071">
        <ele>176.367</ele>
        <time>2013-08-05T05:25:12Z</time>
      </trkpt>
      <trkpt lat="48.7456" lon="2.0807">
        <ele>178.443</ele>
        <time>2013-08-05T05:25:21Z</time>
      </trkpt>
      <trkpt lat="48.74567" lon="2.08069">
        <ele>179.78</ele>
        <time>2013-08-05T05:25:26Z</time>
      </trkpt>
      <trkpt lat="48.74572" lon="2.08072">
        <ele>180.684</ele>
        <time>2013-08-05T05:25:29Z</time>
      </trkpt>
      <trkpt lat="48.74579" lon="2.08069">
        <ele>182.04</ele>
        <time>2013-08-05T05:25:34Z</time>
      </trkpt>
      <trkpt lat="48.74587" lon="2.08056">
        <ele>182.719</ele>
        <time>2013-08-05T05:25:40Z</time>
      </trkpt>
      <trkpt lat="48.74598" lon="2.08025">
        <ele>182.816</ele>
        <time>2013-08-05T05:25:49Z</time>
      </trkpt>
      <trkpt lat="48.74612" lon="2.07986">
        <ele>183.111</ele>
        <time>2013-08-05T05:25:59Z</time>
      </trkpt>
      <trkpt lat="48.74626" lon="2.07947">
        <ele>183.551</ele>
        <time>2013-08-05T05:26:09Z</time>
      </trkpt>
      <trkpt lat="48.7464" lon="2.0791">
        <ele>184.269</ele>
        <time>2013-08-05T05:26:19Z</time>
      </trkpt>
      <trkpt lat="48.74656" lon="2.07868">
        <ele>185.686</ele>
        <time>2013-08-05T05:26:30Z</time>
      </trkpt>
      <trkpt lat="48.7467" lon="2.07831">
        <ele>186.53</ele>
        <time>2013-08-05T05:26:40Z</time>
      </trkpt>
      <trkpt lat="48.74686" lon="2.07785">
        <ele>187.594</ele>
        <time>2013-08-05T05:26:52Z</time>
      </trkpt>
      <trkpt lat="48.74704" lon="2.07737">
        <ele>188.801</ele>
        <time>2013-08-05T05:27:05Z</time>
      </trkpt>
      <trkpt lat="48.74718" lon="2.07698">
        <ele>189.723</ele>
        <time>2013-08-05T05:27:15Z</time>
      </trkpt>
      <trkpt lat="48.74736" lon="2.07649">
        <ele>190.477</ele>
        <time>2013-08-05T05:27:25Z</time>
      </trkpt>
      <trkpt lat="48.74755" lon="2.07597">
        <ele>191.359</ele>
        <time>2013-08-05T05:27:35Z</time>
      </trkpt>
      <trkpt lat="48.74772" lon="2.07552">
        <ele>192.017</ele>
        <time>2013-08-05T05:27:43Z</time>
      </trkpt>
      <trkpt lat="48.74793" lon="2.07493">
        <ele>192.513</ele>
        <time>2013-08-05T05:27:53Z</time>
      </trkpt>
      <trkpt lat="48.74816" lon="2.07428">
        <ele>193.119</ele>
        <time>2013-08-05T05:28:04Z</time>
      </trkpt>
      <trkpt lat="48.74841" lon="2.07357">
        <ele>193.759</ele>
        <time>2013-08-05T05:28:16Z</time>
      </trkpt>
      <trkpt lat="48.74861" lon="2.07294">
        <ele>194.538</ele>
        <time>2013-08-05T05:28:26Z</time>
      </trkpt>
      <trkpt lat="48.74882" lon="2.07237">
        <ele>194.327</ele>
        <time>2013-08-05T05:28:35Z</time>
      </trkpt>
      <trkpt lat="48.7489" lon="2.07213">
        <ele>194.783</ele>
        <time>2013-08-05T05:28:39Z</time>
      </trkpt>
      <trkpt lat="48.74913" lon="2.07153">
        <ele>195.51</ele>
        <time>2013-08-05T05:28:49Z</time>
      </trkpt>
      <trkpt lat="48.74933" lon="2.07098">
        <ele>195.847</ele>
        <time>2013-08-05T05:28:58Z</time>
      </trkpt>
      <trkpt lat="48.74954" lon="2.07045">
        <ele>196.246</ele>
        <time>2013-08-05T05:29:07Z</time>
      </trkpt>
      <trkpt lat="48.74987" lon="2.06968">
        <ele>196.7</ele>
        <time>2013-08-05T05:29:20Z</time>
      </trkpt>
      <trkpt lat="48.75009" lon="2.06914">
        <ele>196.83</ele>
        <time>2013-08-05T05:29:29Z</time>
      </trkpt>
      <trkpt lat="48.75032" lon="2.06847">
        <ele>197.382</ele>
        <time>2013-08-05T05:29:40Z</time>
      </trkpt>
      <trkpt lat="48.75044" lon="2.06792">
        <ele>197.673</ele>
        <time>2013-08-05T05:29:49Z</time>
      </trkpt>
      <trkpt lat="48.75049" lon="2.06774">
        <ele>197.859</ele>
        <time>2013-08-05T05:29:54Z</time>
      </trkpt>
      <trkpt lat="48.75049" lon="2.06772">
        <ele>197.894</ele>
        <time>2013-08-05T05:29:55Z</time>
      </trkpt>
      <trkpt lat="48.75057" lon="2.06774">
        <ele>197.704</ele>
        <time>2013-08-05T05:29:59Z</time>
      </trkpt>
      <trkpt lat="48.75066" lon="2.06783">
        <ele>197.757</ele>
        <time>2013-08-05T05:30:04Z</time>
      </trkpt>
      <trkpt lat="48.75086" lon="2.06789">
        <ele>197.987</ele>
        <time>2013-08-05T05:30:10Z</time>
      </trkpt>
      <trkpt lat="48.7509" lon="2.06787">
        <ele>197.998</ele>
        <time>2013-08-05T05:30:11Z</time>
      </trkpt>
      <trkpt lat="48.75103" lon="2.06773">
        <ele>198.187</ele>
        <time>2013-08-05T05:30:15Z</time>
      </trkpt>
      <trkpt lat="48.75126" lon="2.06766">
        <ele>198.564</ele>
        <time>2013-08-05T05:30:21Z</time>
      </trkpt>
      <trkpt lat="48.75134" lon="2.06769">
        <ele>198.726</ele>
        <time>2013-08-05T05:30:23Z</time>
      </trkpt>
      <trkpt lat="48.75169" lon="2.06794">
        <ele>198.719</ele>
        <time>2013-08-05T05:30:32Z</time>
      </trkpt>
      <trkpt lat="48.75193" lon="2.06816">
        <ele>198.708</ele>
        <time>2013-08-05T05:30:38Z</time>
      </trkpt>
      <trkpt lat="48.75231" lon="2.06851">
        <ele>198.736</ele>
        <time>2013-08-05T05:30:47Z</time>
      </trkpt>
      <trkpt lat="48.75268" lon="2.06881">
        <ele>198.51</ele>
        <time>2013-08-05T05:30:55Z</time>
      </trkpt>
      <trkpt lat="48.75305" lon="2.0691">
        <ele>198.407</ele>
        <time>2013-08-05T05:31:03Z</time>
      </trkpt>
      <trkpt lat="48.75347" lon="2.06942">
        <ele>198.471</ele>
        <time>2013-08-05T05:31:12Z</time>
      </trkpt>
      <trkpt lat="48.75384" lon="2.06971">
        <ele>198.29</ele>
        <time>2013-08-05T05:31:20Z</time>
      </trkpt>
      <trkpt lat="48.75425" lon="2.07002">
        <ele>198.513</ele>
        <time>2013-08-05T05:31:29Z</time>
      </trkpt>
      <trkpt lat="48.75458" lon="2.07029">
        <ele>198.721</ele>
        <time>2013-08-05T05:31:37Z</time>
      </trkpt>
      <trkpt lat="48.75497" lon="2.0706">
        <ele>199.178</ele>
        <time>2013-08-05T05:31:46Z</time>
      </trkpt>
      <trkpt lat="48.75536" lon="2.07086">
        <ele>199.453</ele>
        <time>2013-08-05T05:31:54Z</time>
      </trkpt>
      <trkpt lat="48.7555" lon="2.07096">
        <ele>199.48</ele>
        <time>2013-08-05T05:31:57Z</time>
      </trkpt>
      <trkpt lat="48.75563" lon="2.07119">
        <ele>199.349</ele>
        <time>2013-08-05T05:32:01Z</time>
      </trkpt>
      <trkpt lat="48.75573" lon="2.07148">
        <ele>199.293</ele>
        <time>2013-08-05T05:32:05Z</time>
      </trkpt>
      <trkpt lat="48.75579" lon="2.07161">
        <ele>199.352</ele>
        <time>2013-08-05T05:32:07Z</time>
      </trkpt>
      <trkpt lat="48.75582" lon="2.07191">
        <ele>199.418</ele>
        <time>2013-08-05T05:32:11Z</time>
      </trkpt>
      <trkpt lat="48.75564" lon="2.0727">
        <ele>199.269</ele>
        <time>2013-08-05T05:32:21Z</time>
      </trkpt>
      <trkpt lat="48.75545" lon="2.0735">
        <ele>198.962</ele>
        <time>2013-08-05T05:32:31Z</time>
      </trkpt>
      <trkpt lat="48.75529" lon="2.07423">
        <ele>198.92</ele>
        <time>2013-08-05T05:32:40Z</time>
      </trkpt>
      <trkpt lat="48.75517" lon="2.07472">
        <ele>198.735</ele>
        <time>2013-08-05T05:32:46Z</time>
      </trkpt>
      <trkpt lat="48.75502" lon="2.07493">
        <ele>198.677</ele>
        <time>2013-08-05T05:32:50Z</time>
      </trkpt>
      <trkpt lat="48.75486" lon="2.07514">
        <ele>198.527</ele>
        <time>2013-08-05T05:32:54Z</time>
      </trkpt>
      <trkpt lat="48.75486" lon="2.07539">
        <ele>198.436</ele>
        <time>2013-08-05T05:32:57Z</time>
      </trkpt>
      <trkpt lat="48.75496" lon="2.07557">
        <ele>198.575</ele>
        <time>2013-08-05T05:33:00Z</time>
      </trkpt>
      <trkpt lat="48.75508" lon="2.07561">
        <ele>198.785</ele>
        <time>2013-08-05T05:33:02Z</time>
      </trkpt>
      <trkpt lat="48.75529" lon="2.07577">
        <ele>199.058</ele>
        <time>2013-08-05T05:33:07Z</time>
      </trkpt>
      <trkpt lat="48.75555" lon="2.07636">
        <ele>198.981</ele>
        <time>2013-08-05T05:33:16Z</time>
      </trkpt>
      <trkpt lat="48.75583" lon="2.07698">
        <ele>198.619</ele>
        <time>2013-08-05T05:33:25Z</time>
      </trkpt>
      <trkpt lat="48.7561" lon="2.07753">
        <ele>198.511</ele>
        <time>2013-08-05T05:33:33Z</time>
      </trkpt>
      <trkpt lat="48.75621" lon="2.07774">
        <ele>198.5</ele>
        <time>2013-08-05T05:33:36Z</time>
      </trkpt>
      <trkpt lat="48.75638" lon="2.0781">
        <ele>198.405</ele>
        <time>2013-08-05T05:33:41Z</time>
      </trkpt>
      <trkpt lat="48.75661" lon="2.07863">
        <ele>198.027</ele>
        <time>2013-08-05T05:33:48Z</time>
      </trkpt>
      <trkpt lat="48.75671" lon="2.07884">
        <ele>197.976</ele>
        <time>2013-08-05T05:33:51Z</time>
      </trkpt>
      <trkpt lat="48.75677" lon="2.07917">
        <ele>198.027</ele>
        <time>2013-08-05T05:33:55Z</time>
      </trkpt>
      <trkpt lat="48.75684" lon="2.0793">
        <ele>198.072</ele>
        <time>2013-08-05T05:33:57Z</time>
      </trkpt>
      <trkpt lat="48.75704" lon="2.07974">
        <ele>197.819</ele>
        <time>2013-08-05T05:34:03Z</time>
      </trkpt>
      <trkpt lat="48.75711" lon="2.07998">
        <ele>197.646</ele>
        <time>2013-08-05T05:34:06Z</time>
      </trkpt>
      <trkpt lat="48.7571" lon="2.08029">
        <ele>197.49</ele>
        <time>2013-08-05T05:34:10Z</time>
      </trkpt>
      <trkpt lat="48.75709" lon="2.08047">
        <ele>197.387</ele>
        <time>2013-08-05T05:34:12Z</time>
      </trkpt>
      <trkpt lat="48.75708" lon="2.08065">
        <ele>197.164</ele>
        <time>2013-08-05T05:34:14Z</time>
      </trkpt>
      <trkpt lat="48.75696" lon="2.08099">
        <ele>196.389</ele>
        <time>2013-08-05T05:34:18Z</time>
      </trkpt>
      <trkpt lat="48.75682" lon="2.0812">
        <ele>195.829</ele>
        <time>2013-08-05T05:34:21Z</time>
      </trkpt>
      <trkpt lat="48.75649" lon="2.08146">
        <ele>195.175</ele>
        <time>2013-08-05T05:34:27Z</time>
      </trkpt>
      <trkpt lat="48.75606" lon="2.08169">
        <ele>195.309</ele>
        <time>2013-08-05T05:34:35Z</time>
      </trkpt>
      <trkpt lat="48.7558" lon="2.08196">
        <ele>195.633</ele>
        <time>2013-08-05T05:34:41Z</time>
      </trkpt>
      <trkpt lat="48.75558" lon="2.08232">
        <ele>195.683</ele>
        <time>2013-08-05T05:34:47Z</time>
      </trkpt>
      <trkpt lat="48.7554" lon="2.08289">
        <ele>195.733</ele>
        <time>2013-08-05T05:34:55Z</time>
      </trkpt>
      <trkpt lat="48.75536" lon="2.08311">
        <ele>195.744</ele>
        <time>2013-08-05T05:34:58Z</time>
      </trkpt>
      <trkpt lat="48.75534" lon="2.08349">
        <ele>195.858</ele>
        <time>2013-08-05T05:35:04Z</time>
      </trkpt>
      <trkpt lat="48.75537" lon="2.08378">
        <ele>196.114</ele>
        <time>2013-08-05T05:35:08Z</time>
      </trkpt>
      <trkpt lat="48.75538" lon="2.08453">
        <ele>197.951</ele>
        <time>2013-08-05T05:35:18Z</time>
      </trkpt>
      <trkpt lat="48.75539" lon="2.08483">
        <ele>198.824</ele>
        <time>2013-08-05T05:35:22Z</time>
      </trkpt>
      <trkpt lat="48.75541" lon="2.08512">
        <ele>199.852</ele>
        <time>2013-08-05T05:35:26Z</time>
      </trkpt>
      <trkpt lat="48.75543" lon="2.08535">
        <ele>200.405</ele>
        <time>2013-08-05T05:35:29Z</time>
      </trkpt>
      <trkpt lat="48.75556" lon="2.086">
        <ele>201.484</ele>
        <time>2013-08-05T05:35:38Z</time>
      </trkpt>
      <trkpt lat="48.75577" lon="2.08655">
        <ele>201.662</ele>
        <time>2013-08-05T05:35:46Z</time>
      </trkpt>
      <trkpt lat="48.75605" lon="2.08702">
        <ele>200.672</ele>
        <time>2013-08-05T05:35:53Z</time>
      </trkpt>
      <trkpt lat="48.75632" lon="2.08734">
        <ele>199.607</ele>
        <time>2013-08-05T05:35:58Z</time>
      </trkpt>
      <trkpt lat="48.75682" lon="2.08762">
        <ele>197.926</ele>
        <time>2013-08-05T05:36:05Z</time>
      </trkpt>
      <trkpt lat="48.75753" lon="2.08795">
        <ele>195.942</ele>
        <time>2013-08-05T05:36:14Z</time>
      </trkpt>
      <trkpt lat="48.75825" lon="2.08827">
        <ele>194.962</ele>
        <time>2013-08-05T05:36:24Z</time>
      </trkpt>
      <trkpt lat="48.7587" lon="2.08852">
        <ele>195.13</ele>
        <time>2013-08-05T05:36:31Z</time>
      </trkpt>
      <trkpt lat="48.75882" lon="2.0886">
        <ele>195.151</ele>
        <time>2013-08-05T05:36:33Z</time>
      </trkpt>
      <trkpt lat="48.75906" lon="2.08872">
        <ele>195.311</ele>
        <time>2013-08-05T05:36:37Z</time>
      </trkpt>
      <trkpt lat="48.75913" lon="2.08874">
        <ele>195.313</ele>
        <time>2013-08-05T05:36:38Z</time>
      </trkpt>
      <trkpt lat="48.75925" lon="2.0888">
        <ele>195.436</ele>
        <time>2013-08-05T05:36:40Z</time>
      </trkpt>
      <trkpt lat="48.75931" lon="2.08883">
        <ele>195.449</ele>
        <time>2013-08-05T05:36:41Z</time>
      </trkpt>
      <trkpt lat="48.7595" lon="2.08891">
        <ele>195.704</ele>
        <time>2013-08-05T05:36:44Z</time>
      </trkpt>
      <trkpt lat="48.75993" lon="2.0891">
        <ele>195.976</ele>
        <time>2013-08-05T05:36:51Z</time>
      </trkpt>
      <trkpt lat="48.7606" lon="2.0894">
        <ele>196.447</ele>
        <time>2013-08-05T05:37:02Z</time>
      </trkpt>
      <trkpt lat="48.76089" lon="2.08951">
        <ele>196.826</ele>
        <time>2013-08-05T05:37:07Z</time>
      </trkpt>
      <trkpt lat="48.76123" lon="2.08951">
        <ele>197.22</ele>
        <time>2013-08-05T05:37:13Z</time>
      </trkpt>
      <trkpt lat="48.76129" lon="2.0895">
        <ele>197.238</ele>
        <time>2013-08-05T05:37:14Z</time>
      </trkpt>
      <trkpt lat="48.76166" lon="2.08924">
        <ele>197.562</ele>
        <time>2013-08-05T05:37:21Z</time>
      </trkpt>
      <trkpt lat="48.76179" lon="2.08909">
        <ele>197.475</ele>
        <time>2013-08-05T05:37:24Z</time>
      </trkpt>
      <trkpt lat="48.76185" lon="2.08881">
        <ele>197.566</ele>
        <time>2013-08-05T05:37:28Z</time>
      </trkpt>
      <trkpt lat="48.76186" lon="2.08866">
        <ele>197.555</ele>
        <time>2013-08-05T05:37:30Z</time>
      </trkpt>
      <trkpt lat="48.76188" lon="2.08845">
        <ele>197.787</ele>
        <time>2013-08-05T05:37:33Z</time>
      </trkpt>
      <trkpt lat="48.76185" lon="2.08816">
        <ele>197.97</ele>
        <time>2013-08-05T05:37:37Z</time>
      </trkpt>
      <trkpt lat="48.76183" lon="2.08809">
        <ele>197.981</ele>
        <time>2013-08-05T05:37:38Z</time>
      </trkpt>
      <trkpt lat="48.76154" lon="2.08751">
        <ele>197.556</ele>
        <time>2013-08-05T05:37:47Z</time>
      </trkpt>
      <trkpt lat="48.76148" lon="2.0874">
        <ele>197.442</ele>
        <time>2013-08-05T05:37:49Z</time>
      </trkpt>
      <trkpt lat="48.76144" lon="2.08713">
        <ele>197.219</ele>
        <time>2013-08-05T05:37:53Z</time>
      </trkpt>
      <trkpt lat="48.76143" lon="2.08698">
        <ele>197.136</ele>
        <time>2013-08-05T05:37:56Z</time>
      </trkpt>
      <trkpt lat="48.76144" lon="2.08683">
        <ele>196.894</ele>
        <time>2013-08-05T05:37:59Z</time>
      </trkpt>
      <trkpt lat="48.76148" lon="2.08679">
        <ele>196.867</ele>
        <time>2013-08-05T05:38:00Z</time>
      </trkpt>
      <trkpt lat="48.76181" lon="2.08635">
        <ele>196.746</ele>
        <time>2013-08-05T05:38:09Z</time>
      </trkpt>
      <trkpt lat="48.76213" lon="2.08593">
        <ele>196.668</ele>
        <time>2013-08-05T05:38:17Z</time>
      </trkpt>
      <trkpt lat="48.76247" lon="2.08553">
        <ele>197.077</ele>
        <time>2013-08-05T05:38:25Z</time>
      </trkpt>
      <trkpt lat="48.76251" lon="2.08549">
        <ele>197.103</ele>
        <time>2013-08-05T05:38:26Z</time>
      </trkpt>
      <trkpt lat="48.76256" lon="2.08533">
        <ele>197.063</ele>
        <time>2013-08-05T05:38:30Z</time>
      </trkpt>
      <trkpt lat="48.76252" lon="2.08525">
        <ele>197</ele>
        <time>2013-08-05T05:38:32Z</time>
      </trkpt>
      <trkpt lat="48.76246" lon="2.08516">
        <ele>196.984</ele>
        <time>2013-08-05T05:38:34Z</time>
      </trkpt>
      <trkpt lat="48.76226" lon="2.08482">
        <ele>197.147</ele>
        <time>2013-08-05T05:38:41Z</time>
      </trkpt>
      <trkpt lat="48.76214" lon="2.08462">
        <ele>197.168</ele>
        <time>2013-08-05T05:38:46Z</time>
      </trkpt>
      <trkpt lat="48.76201" lon="2.08434">
        <ele>197.252</ele>
        <time>2013-08-05T05:38:53Z</time>
      </trkpt>
      <trkpt lat="48.76204" lon="2.08428">
        <ele>197.376</ele>
        <time>2013-08-05T05:38:56Z</time>
      </trkpt>
      <trkpt lat="48.76213" lon="2.08417">
        <ele>197.348</ele>
        <time>2013-08-05T05:39:00Z</time>
      </trkpt>
      <trkpt lat="48.76225" lon="2.08401">
        <ele>197.212</ele>
        <time>2013-08-05T05:39:04Z</time>
      </trkpt>
      <trkpt lat="48.76236" lon="2.08391">
        <ele>197.294</ele>
        <time>2013-08-05T05:39:07Z</time>
      </trkpt>
      <trkpt lat="48.76239" lon="2.08387">
        <ele>197.332</ele>
        <time>2013-08-05T05:39:08Z</time>
      </trkpt>
      <trkpt lat="48.76248" lon="2.08376">
        <ele>197.447</ele>
        <time>2013-08-05T05:39:11Z</time>
      </trkpt>
      <trkpt lat="48.7625" lon="2.08373">
        <ele>197.437</ele>
        <time>2013-08-05T05:39:12Z</time>
      </trkpt>
      <trkpt lat="48.7626" lon="2.08357">
        <ele>197.498</ele>
        <time>2013-08-05T05:39:17Z</time>
      </trkpt>
      <trkpt lat="48.7626" lon="2.08354">
        <ele>197.581</ele>
        <time>2013-08-05T05:39:23Z</time>
      </trkpt>
      <trkpt lat="48.76197" lon="2.08489">
        <ele>161.03</ele>
        <time>2013-08-05T15:07:37Z</time>
      </trkpt>
      <trkpt lat="48.76213" lon="2.08513">
        <ele>161.417</ele>
        <time>2013-08-05T15:07:44Z</time>
      </trkpt>
      <trkpt lat="48.76228" lon="2.08529">
        <ele>161.615</ele>
        <time>2013-08-05T15:07:50Z</time>
      </trkpt>
      <trkpt lat="48.7624" lon="2.08543">
        <ele>161.559</ele>
        <time>2013-08-05T15:07:56Z</time>
      </trkpt>
      <trkpt lat="48.76251" lon="2.08554">
        <ele>161.571</ele>
        <time>2013-08-05T15:08:02Z</time>
      </trkpt>
      <trkpt lat="48.76266" lon="2.08573">
        <ele>161.583</ele>
        <time>2013-08-05T15:08:08Z</time>
      </trkpt>
      <trkpt lat="48.76289" lon="2.08608">
        <ele>161.789</ele>
        <time>2013-08-05T15:08:17Z</time>
      </trkpt>
      <trkpt lat="48.76303" lon="2.0863">
        <ele>162.073</ele>
        <time>2013-08-05T15:08:23Z</time>
      </trkpt>
      <trkpt lat="48.76304" lon="2.08643">
        <ele>162.287</ele>
        <time>2013-08-05T15:08:27Z</time>
      </trkpt>
      <trkpt lat="48.76309" lon="2.08657">
        <ele>162.307</ele>
        <time>2013-08-05T15:08:30Z</time>
      </trkpt>
      <trkpt lat="48.76311" lon="2.08661">
        <ele>162.255</ele>
        <time>2013-08-05T15:08:31Z</time>
      </trkpt>
      <trkpt lat="48.76331" lon="2.08701">
        <ele>162.346</ele>
        <time>2013-08-05T15:08:41Z</time>
      </trkpt>
      <trkpt lat="48.76335" lon="2.08718">
        <ele>162.482</ele>
        <time>2013-08-05T15:08:45Z</time>
      </trkpt>
      <trkpt lat="48.7632" lon="2.08738">
        <ele>162.917</ele>
        <time>2013-08-05T15:08:51Z</time>
      </trkpt>
      <trkpt lat="48.76285" lon="2.08777">
        <ele>163.293</ele>
        <time>2013-08-05T15:09:02Z</time>
      </trkpt>
      <trkpt lat="48.76245" lon="2.08824">
        <ele>163.632</ele>
        <time>2013-08-05T15:09:14Z</time>
      </trkpt>
      <trkpt lat="48.76236" lon="2.08834">
        <ele>163.692</ele>
        <time>2013-08-05T15:09:17Z</time>
      </trkpt>
      <trkpt lat="48.76216" lon="2.0884">
        <ele>163.757</ele>
        <time>2013-08-05T15:09:22Z</time>
      </trkpt>
      <trkpt lat="48.76203" lon="2.08853">
        <ele>163.829</ele>
        <time>2013-08-05T15:09:26Z</time>
      </trkpt>
      <trkpt lat="48.76197" lon="2.0887">
        <ele>163.733</ele>
        <time>2013-08-05T15:09:29Z</time>
      </trkpt>
      <trkpt lat="48.76182" lon="2.08901">
        <ele>163.564</ele>
        <time>2013-08-05T15:09:35Z</time>
      </trkpt>
      <trkpt lat="48.7615" lon="2.08932">
        <ele>163.108</ele>
        <time>2013-08-05T15:09:43Z</time>
      </trkpt>
      <trkpt lat="48.76118" lon="2.08942">
        <ele>163.062</ele>
        <time>2013-08-05T15:09:50Z</time>
      </trkpt>
      <trkpt lat="48.76086" lon="2.08935">
        <ele>162.632</ele>
        <time>2013-08-05T15:09:57Z</time>
      </trkpt>
      <trkpt lat="48.76034" lon="2.08912">
        <ele>163.189</ele>
        <time>2013-08-05T15:10:09Z</time>
      </trkpt>
      <trkpt lat="48.75982" lon="2.08889">
        <ele>162.647</ele>
        <time>2013-08-05T15:10:21Z</time>
      </trkpt>
      <trkpt lat="48.75934" lon="2.08865">
        <ele>162.472</ele>
        <time>2013-08-05T15:10:32Z</time>
      </trkpt>
      <trkpt lat="48.75882" lon="2.0884">
        <ele>162.033</ele>
        <time>2013-08-05T15:10:44Z</time>
      </trkpt>
      <trkpt lat="48.75838" lon="2.08821">
        <ele>162.299</ele>
        <time>2013-08-05T15:10:54Z</time>
      </trkpt>
      <trkpt lat="48.75791" lon="2.08801">
        <ele>162.669</ele>
        <time>2013-08-05T15:11:05Z</time>
      </trkpt>
      <trkpt lat="48.7575" lon="2.08783">
        <ele>162.879</ele>
        <time>2013-08-05T15:11:15Z</time>
      </trkpt>
      <trkpt lat="48.75727" lon="2.08773">
        <ele>163.509</ele>
        <time>2013-08-05T15:11:21Z</time>
      </trkpt>
      <trkpt lat="48.75699" lon="2.08761">
        <ele>164.529</ele>
        <time>2013-08-05T15:11:29Z</time>
      </trkpt>
      <trkpt lat="48.75669" lon="2.08746">
        <ele>165.706</ele>
        <time>2013-08-05T15:11:38Z</time>
      </trkpt>
      <trkpt lat="48.75635" lon="2.08717">
        <ele>167.043</ele>
        <time>2013-08-05T15:11:49Z</time>
      </trkpt>
      <trkpt lat="48.75614" lon="2.08685">
        <ele>168.284</ele>
        <time>2013-08-05T15:11:58Z</time>
      </trkpt>
      <trkpt lat="48.75595" lon="2.08648">
        <ele>169.335</ele>
        <time>2013-08-05T15:12:07Z</time>
      </trkpt>
      <trkpt lat="48.75579" lon="2.08598">
        <ele>170.204</ele>
        <time>2013-08-05T15:12:17Z</time>
      </trkpt>
      <trkpt lat="48.75567" lon="2.08538">
        <ele>169.605</ele>
        <time>2013-08-05T15:12:27Z</time>
      </trkpt>
      <trkpt lat="48.75562" lon="2.08495">
        <ele>168.854</ele>
        <time>2013-08-05T15:12:33Z</time>
      </trkpt>
      <trkpt lat="48.7556" lon="2.08479">
        <ele>168.67</ele>
        <time>2013-08-05T15:12:35Z</time>
      </trkpt>
      <trkpt lat="48.75557" lon="2.08433">
        <ele>168.156</ele>
        <time>2013-08-05T15:12:40Z</time>
      </trkpt>
      <trkpt lat="48.75557" lon="2.08373">
        <ele>166.893</ele>
        <time>2013-08-05T15:12:46Z</time>
      </trkpt>
      <trkpt lat="48.75562" lon="2.08311">
        <ele>166.21</ele>
        <time>2013-08-05T15:12:52Z</time>
      </trkpt>
      <trkpt lat="48.75576" lon="2.08258">
        <ele>165.553</ele>
        <time>2013-08-05T15:12:58Z</time>
      </trkpt>
      <trkpt lat="48.75594" lon="2.08219">
        <ele>165.652</ele>
        <time>2013-08-05T15:13:04Z</time>
      </trkpt>
      <trkpt lat="48.7562" lon="2.08187">
        <ele>165.586</ele>
        <time>2013-08-05T15:13:11Z</time>
      </trkpt>
      <trkpt lat="48.75655" lon="2.08173">
        <ele>165.877</ele>
        <time>2013-08-05T15:13:18Z</time>
      </trkpt>
      <trkpt lat="48.75691" lon="2.08156">
        <ele>166.14</ele>
        <time>2013-08-05T15:13:25Z</time>
      </trkpt>
      <trkpt lat="48.75714" lon="2.0813">
        <ele>166.147</ele>
        <time>2013-08-05T15:13:31Z</time>
      </trkpt>
      <trkpt lat="48.75723" lon="2.08098">
        <ele>166.432</ele>
        <time>2013-08-05T15:13:37Z</time>
      </trkpt>
      <trkpt lat="48.75739" lon="2.08084">
        <ele>166.649</ele>
        <time>2013-08-05T15:13:42Z</time>
      </trkpt>
      <trkpt lat="48.75743" lon="2.08082">
        <ele>166.675</ele>
        <time>2013-08-05T15:13:43Z</time>
      </trkpt>
      <trkpt lat="48.75762" lon="2.08063">
        <ele>166.653</ele>
        <time>2013-08-05T15:13:48Z</time>
      </trkpt>
      <trkpt lat="48.75764" lon="2.08037">
        <ele>166.791</ele>
        <time>2013-08-05T15:13:52Z</time>
      </trkpt>
      <trkpt lat="48.75754" lon="2.08017">
        <ele>167.12</ele>
        <time>2013-08-05T15:13:56Z</time>
      </trkpt>
      <trkpt lat="48.75746" lon="2.08013">
        <ele>167.396</ele>
        <time>2013-08-05T15:13:58Z</time>
      </trkpt>
      <trkpt lat="48.7573" lon="2.07995">
        <ele>168.141</ele>
        <time>2013-08-05T15:14:03Z</time>
      </trkpt>
      <trkpt lat="48.75721" lon="2.07964">
        <ele>168.634</ele>
        <time>2013-08-05T15:14:08Z</time>
      </trkpt>
      <trkpt lat="48.75717" lon="2.07949">
        <ele>168.962</ele>
        <time>2013-08-05T15:14:11Z</time>
      </trkpt>
      <trkpt lat="48.75722" lon="2.07925">
        <ele>169.383</ele>
        <time>2013-08-05T15:14:16Z</time>
      </trkpt>
      <trkpt lat="48.75719" lon="2.07902">
        <ele>169.685</ele>
        <time>2013-08-05T15:14:20Z</time>
      </trkpt>
      <trkpt lat="48.75708" lon="2.07887">
        <ele>169.975</ele>
        <time>2013-08-05T15:14:24Z</time>
      </trkpt>
      <trkpt lat="48.757" lon="2.07883">
        <ele>170.117</ele>
        <time>2013-08-05T15:14:26Z</time>
      </trkpt>
      <trkpt lat="48.75691" lon="2.07863">
        <ele>170.191</ele>
        <time>2013-08-05T15:14:30Z</time>
      </trkpt>
      <trkpt lat="48.7566" lon="2.07796">
        <ele>170.117</ele>
        <time>2013-08-05T15:14:42Z</time>
      </trkpt>
      <trkpt lat="48.75636" lon="2.07747">
        <ele>170.09</ele>
        <time>2013-08-05T15:14:51Z</time>
      </trkpt>
      <trkpt lat="48.75612" lon="2.07697">
        <ele>170.543</ele>
        <time>2013-08-05T15:15:00Z</time>
      </trkpt>
      <trkpt lat="48.75586" lon="2.07645">
        <ele>170.514</ele>
        <time>2013-08-05T15:15:09Z</time>
      </trkpt>
      <trkpt lat="48.75563" lon="2.07595">
        <ele>170.494</ele>
        <time>2013-08-05T15:15:18Z</time>
      </trkpt>
      <trkpt lat="48.75546" lon="2.07558">
        <ele>170.683</ele>
        <time>2013-08-05T15:15:25Z</time>
      </trkpt>
      <trkpt lat="48.75543" lon="2.07531">
        <ele>170.596</ele>
        <time>2013-08-05T15:15:29Z</time>
      </trkpt>
      <trkpt lat="48.75538" lon="2.07496">
        <ele>170.542</ele>
        <time>2013-08-05T15:15:34Z</time>
      </trkpt>
      <trkpt lat="48.75541" lon="2.07469">
        <ele>170.343</ele>
        <time>2013-08-05T15:15:38Z</time>
      </trkpt>
      <trkpt lat="48.75558" lon="2.07411">
        <ele>170.696</ele>
        <time>2013-08-05T15:15:47Z</time>
      </trkpt>
      <trkpt lat="48.75569" lon="2.07373">
        <ele>170.733</ele>
        <time>2013-08-05T15:15:53Z</time>
      </trkpt>
      <trkpt lat="48.75573" lon="2.0736">
        <ele>170.674</ele>
        <time>2013-08-05T15:15:55Z</time>
      </trkpt>
      <trkpt lat="48.75586" lon="2.07315">
        <ele>170.713</ele>
        <time>2013-08-05T15:16:02Z</time>
      </trkpt>
      <trkpt lat="48.75601" lon="2.07263">
        <ele>170.369</ele>
        <time>2013-08-05T15:16:10Z</time>
      </trkpt>
      <trkpt lat="48.75612" lon="2.07221">
        <ele>170.583</ele>
        <time>2013-08-05T15:16:17Z</time>
      </trkpt>
      <trkpt lat="48.75618" lon="2.07199">
        <ele>170.565</ele>
        <time>2013-08-05T15:16:22Z</time>
      </trkpt>
      <trkpt lat="48.75616" lon="2.07192">
        <ele>170.536</ele>
        <time>2013-08-05T15:16:25Z</time>
      </trkpt>
      <trkpt lat="48.7561" lon="2.07186">
        <ele>170.827</ele>
        <time>2013-08-05T15:16:31Z</time>
      </trkpt>
      <trkpt lat="48.75607" lon="2.07183">
        <ele>170.755</ele>
        <time>2013-08-05T15:16:34Z</time>
      </trkpt>
      <trkpt lat="48.75588" lon="2.0717">
        <ele>170.848</ele>
        <time>2013-08-05T15:16:40Z</time>
      </trkpt>
      <trkpt lat="48.75583" lon="2.07162">
        <ele>171.084</ele>
        <time>2013-08-05T15:16:42Z</time>
      </trkpt>
      <trkpt lat="48.75577" lon="2.07146">
        <ele>171.351</ele>
        <time>2013-08-05T15:16:45Z</time>
      </trkpt>
      <trkpt lat="48.75575" lon="2.07135">
        <ele>171.431</ele>
        <time>2013-08-05T15:16:47Z</time>
      </trkpt>
      <trkpt lat="48.75564" lon="2.07119">
        <ele>171.075</ele>
        <time>2013-08-05T15:16:51Z</time>
      </trkpt>
      <trkpt lat="48.75566" lon="2.0711">
        <ele>170.901</ele>
        <time>2013-08-05T15:16:53Z</time>
      </trkpt>
      <trkpt lat="48.75558" lon="2.071">
        <ele>170.691</ele>
        <time>2013-08-05T15:16:56Z</time>
      </trkpt>
      <trkpt lat="48.75536" lon="2.07082">
        <ele>170.923</ele>
        <time>2013-08-05T15:17:02Z</time>
      </trkpt>
      <trkpt lat="48.75519" lon="2.07073">
        <ele>171.097</ele>
        <time>2013-08-05T15:17:06Z</time>
      </trkpt>
      <trkpt lat="48.75473" lon="2.07039">
        <ele>170.44</ele>
        <time>2013-08-05T15:17:17Z</time>
      </trkpt>
      <trkpt lat="48.7543" lon="2.07006">
        <ele>170.626</ele>
        <time>2013-08-05T15:17:27Z</time>
      </trkpt>
      <trkpt lat="48.75383" lon="2.06971">
        <ele>169.753</ele>
        <time>2013-08-05T15:17:38Z</time>
      </trkpt>
      <trkpt lat="48.75334" lon="2.06933">
        <ele>170.406</ele>
        <time>2013-08-05T15:17:50Z</time>
      </trkpt>
      <trkpt lat="48.75308" lon="2.06913">
        <ele>170.282</ele>
        <time>2013-08-05T15:17:56Z</time>
      </trkpt>
      <trkpt lat="48.75267" lon="2.06881">
        <ele>170.351</ele>
        <time>2013-08-05T15:18:06Z</time>
      </trkpt>
      <trkpt lat="48.75221" lon="2.06844">
        <ele>170.639</ele>
        <time>2013-08-05T15:18:17Z</time>
      </trkpt>
      <trkpt lat="48.75184" lon="2.06809">
        <ele>170.51</ele>
        <time>2013-08-05T15:18:27Z</time>
      </trkpt>
      <trkpt lat="48.7515" lon="2.06782">
        <ele>170.617</ele>
        <time>2013-08-05T15:18:36Z</time>
      </trkpt>
      <trkpt lat="48.75126" lon="2.06769">
        <ele>170.687</ele>
        <time>2013-08-05T15:18:42Z</time>
      </trkpt>
      <trkpt lat="48.75109" lon="2.06773">
        <ele>170.767</ele>
        <time>2013-08-05T15:18:46Z</time>
      </trkpt>
      <trkpt lat="48.75102" lon="2.0678">
        <ele>170.687</ele>
        <time>2013-08-05T15:18:48Z</time>
      </trkpt>
      <trkpt lat="48.75095" lon="2.06787">
        <ele>170.553</ele>
        <time>2013-08-05T15:18:50Z</time>
      </trkpt>
      <trkpt lat="48.75081" lon="2.06794">
        <ele>170.576</ele>
        <time>2013-08-05T15:18:54Z</time>
      </trkpt>
      <trkpt lat="48.75074" lon="2.06792">
        <ele>170.533</ele>
        <time>2013-08-05T15:18:56Z</time>
      </trkpt>
      <trkpt lat="48.7506" lon="2.06782">
        <ele>170.591</ele>
        <time>2013-08-05T15:19:00Z</time>
      </trkpt>
      <trkpt lat="48.75049" lon="2.06757">
        <ele>170.669</ele>
        <time>2013-08-05T15:19:05Z</time>
      </trkpt>
      <trkpt lat="48.75046" lon="2.0674">
        <ele>170.617</ele>
        <time>2013-08-05T15:19:08Z</time>
      </trkpt>
      <trkpt lat="48.75044" lon="2.06721">
        <ele>170.577</ele>
        <time>2013-08-05T15:19:11Z</time>
      </trkpt>
      <trkpt lat="48.75035" lon="2.06703">
        <ele>170.898</ele>
        <time>2013-08-05T15:19:15Z</time>
      </trkpt>
      <trkpt lat="48.75029" lon="2.06697">
        <ele>171.11</ele>
        <time>2013-08-05T15:19:17Z</time>
      </trkpt>
      <trkpt lat="48.75031" lon="2.06676">
        <ele>170.845</ele>
        <time>2013-08-05T15:19:21Z</time>
      </trkpt>
      <trkpt lat="48.75038" lon="2.06671">
        <ele>170.51</ele>
        <time>2013-08-05T15:19:24Z</time>
      </trkpt>
      <trkpt lat="48.75052" lon="2.06675">
        <ele>170.395</ele>
        <time>2013-08-05T15:19:28Z</time>
      </trkpt>
      <trkpt lat="48.75063" lon="2.06669">
        <ele>170.475</ele>
        <time>2013-08-05T15:19:31Z</time>
      </trkpt>
      <trkpt lat="48.75083" lon="2.0666">
        <ele>170.678</ele>
        <time>2013-08-05T15:19:36Z</time>
      </trkpt>
      <trkpt lat="48.75101" lon="2.06651">
        <ele>170.779</ele>
        <time>2013-08-05T15:19:40Z</time>
      </trkpt>
      <trkpt lat="48.75138" lon="2.0661">
        <ele>170.207</ele>
        <time>2013-08-05T15:19:49Z</time>
      </trkpt>
      <trkpt lat="48.7517" lon="2.06562">
        <ele>170.56</ele>
        <time>2013-08-05T15:19:58Z</time>
      </trkpt>
      <trkpt lat="48.75198" lon="2.06499">
        <ele>171.146</ele>
        <time>2013-08-05T15:20:08Z</time>
      </trkpt>
      <trkpt lat="48.75213" lon="2.06461">
        <ele>171.508</ele>
        <time>2013-08-05T15:20:14Z</time>
      </trkpt>
      <trkpt lat="48.75221" lon="2.06439">
        <ele>171.429</ele>
        <time>2013-08-05T15:20:17Z</time>
      </trkpt>
      <trkpt lat="48.75244" lon="2.0639">
        <ele>171.548</ele>
        <time>2013-08-05T15:20:25Z</time>
      </trkpt>
      <trkpt lat="48.75249" lon="2.06359">
        <ele>171.75</ele>
        <time>2013-08-05T15:20:30Z</time>
      </trkpt>
      <trkpt lat="48.7525" lon="2.06338">
        <ele>171.861</ele>
        <time>2013-08-05T15:20:33Z</time>
      </trkpt>
      <trkpt lat="48.75252" lon="2.06332">
        <ele>171.83</ele>
        <time>2013-08-05T15:20:34Z</time>
      </trkpt>
      <trkpt lat="48.75273" lon="2.06267">
        <ele>171.972</ele>
        <time>2013-08-05T15:20:44Z</time>
      </trkpt>
      <trkpt lat="48.7529" lon="2.06213">
        <ele>172.145</ele>
        <time>2013-08-05T15:20:52Z</time>
      </trkpt>
      <trkpt lat="48.75295" lon="2.062">
        <ele>172.226</ele>
        <time>2013-08-05T15:20:54Z</time>
      </trkpt>
      <trkpt lat="48.75309" lon="2.06163">
        <ele>172.401</ele>
        <time>2013-08-05T15:21:00Z</time>
      </trkpt>
      <trkpt lat="48.75321" lon="2.06133">
        <ele>172.38</ele>
        <time>2013-08-05T15:21:05Z</time>
      </trkpt>
      <trkpt lat="48.75341" lon="2.06091">
        <ele>172.517</ele>
        <time>2013-08-05T15:21:12Z</time>
      </trkpt>
      <trkpt lat="48.75368" lon="2.06038">
        <ele>172.53</ele>
        <time>2013-08-05T15:21:21Z</time>
      </trkpt>
      <trkpt lat="48.7539" lon="2.05991">
        <ele>173.033</ele>
        <time>2013-08-05T15:21:29Z</time>
      </trkpt>
      <trkpt lat="48.75412" lon="2.05943">
        <ele>173.216</ele>
        <time>2013-08-05T15:21:37Z</time>
      </trkpt>
      <trkpt lat="48.75418" lon="2.05926">
        <ele>173.015</ele>
        <time>2013-08-05T15:21:40Z</time>
      </trkpt>
      <trkpt lat="48.75434" lon="2.05894">
        <ele>172.666</ele>
        <time>2013-08-05T15:21:46Z</time>
      </trkpt>
      <trkpt lat="48.7544" lon="2.05874">
        <ele>172.665</ele>
        <time>2013-08-05T15:21:49Z</time>
      </trkpt>
      <trkpt lat="48.75461" lon="2.05815">
        <ele>172.43</ele>
        <time>2013-08-05T15:21:58Z</time>
      </trkpt>
      <trkpt lat="48.75472" lon="2.05782">
        <ele>172.228</ele>
        <time>2013-08-05T15:22:03Z</time>
      </trkpt>
      <trkpt lat="48.75494" lon="2.05723">
        <ele>171.401</ele>
        <time>2013-08-05T15:22:12Z</time>
      </trkpt>
      <trkpt lat="48.75507" lon="2.05689">
        <ele>171.395</ele>
        <time>2013-08-05T15:22:17Z</time>
      </trkpt>
      <trkpt lat="48.75523" lon="2.05641">
        <ele>170.964</ele>
        <time>2013-08-05T15:22:24Z</time>
      </trkpt>
      <trkpt lat="48.75543" lon="2.05589">
        <ele>171.103</ele>
        <time>2013-08-05T15:22:32Z</time>
      </trkpt>
      <trkpt lat="48.75548" lon="2.05578">
        <ele>170.928</ele>
        <time>2013-08-05T15:22:34Z</time>
      </trkpt>
      <trkpt lat="48.75556" lon="2.05554">
        <ele>170.308</ele>
        <time>2013-08-05T15:22:38Z</time>
      </trkpt>
      <trkpt lat="48.75571" lon="2.05508">
        <ele>170.415</ele>
        <time>2013-08-05T15:22:45Z</time>
      </trkpt>
      <trkpt lat="48.75585" lon="2.05468">
        <ele>170.812</ele>
        <time>2013-08-05T15:22:51Z</time>
      </trkpt>
      <trkpt lat="48.75604" lon="2.05421">
        <ele>170.564</ele>
        <time>2013-08-05T15:22:58Z</time>
      </trkpt>
      <trkpt lat="48.75606" lon="2.05414">
        <ele>170.559</ele>
        <time>2013-08-05T15:22:59Z</time>
      </trkpt>
      <trkpt lat="48.7562" lon="2.05374">
        <ele>170.536</ele>
        <time>2013-08-05T15:23:05Z</time>
      </trkpt>
      <trkpt lat="48.75623" lon="2.05368">
        <ele>170.628</ele>
        <time>2013-08-05T15:23:06Z</time>
      </trkpt>
      <trkpt lat="48.75616" lon="2.05346">
        <ele>170.714</ele>
        <time>2013-08-05T15:23:10Z</time>
      </trkpt>
      <trkpt lat="48.75611" lon="2.05343">
        <ele>170.768</ele>
        <time>2013-08-05T15:23:11Z</time>
      </trkpt>
      <trkpt lat="48.75562" lon="2.05333">
        <ele>170.946</ele>
        <time>2013-08-05T15:23:20Z</time>
      </trkpt>
      <trkpt lat="48.75546" lon="2.05317">
        <ele>170.708</ele>
        <time>2013-08-05T15:23:24Z</time>
      </trkpt>
      <trkpt lat="48.75534" lon="2.05305">
        <ele>170.232</ele>
        <time>2013-08-05T15:23:27Z</time>
      </trkpt>
      <trkpt lat="48.7553" lon="2.05303">
        <ele>170.083</ele>
        <time>2013-08-05T15:23:28Z</time>
      </trkpt>
      <trkpt lat="48.75479" lon="2.05293">
        <ele>169.85</ele>
        <time>2013-08-05T15:23:38Z</time>
      </trkpt>
      <trkpt lat="48.75459" lon="2.05276">
        <ele>169.788</ele>
        <time>2013-08-05T15:23:43Z</time>
      </trkpt>
      <trkpt lat="48.75457" lon="2.05262">
        <ele>169.786</ele>
        <time>2013-08-05T15:23:45Z</time>
      </trkpt>
      <trkpt lat="48.75463" lon="2.05195">
        <ele>169.585</ele>
        <time>2013-08-05T15:23:54Z</time>
      </trkpt>
      <trkpt lat="48.75466" lon="2.05159">
        <ele>170.025</ele>
        <time>2013-08-05T15:23:59Z</time>
      </trkpt>
      <trkpt lat="48.75468" lon="2.05129">
        <ele>170.311</ele>
        <time>2013-08-05T15:24:04Z</time>
      </trkpt>
      <trkpt lat="48.75459" lon="2.05128">
        <ele>170.299</ele>
        <time>2013-08-05T15:24:06Z</time>
      </trkpt>
      <trkpt lat="48.75419" lon="2.05127">
        <ele>170.124</ele>
        <time>2013-08-05T15:24:14Z</time>
      </trkpt>
      <trkpt lat="48.75397" lon="2.05125">
        <ele>169.731</ele>
        <time>2013-08-05T15:24:18Z</time>
      </trkpt>
      <trkpt lat="48.75348" lon="2.05116">
        <ele>168.881</ele>
        <time>2013-08-05T15:24:27Z</time>
      </trkpt>
      <trkpt lat="48.7531" lon="2.05108">
        <ele>168.287</ele>
        <time>2013-08-05T15:24:34Z</time>
      </trkpt>
      <trkpt lat="48.75283" lon="2.05099">
        <ele>167.89</ele>
        <time>2013-08-05T15:24:39Z</time>
      </trkpt>
      <trkpt lat="48.75259" lon="2.05091">
        <ele>167.471</ele>
        <time>2013-08-05T15:24:44Z</time>
      </trkpt>
      <trkpt lat="48.75229" lon="2.05081">
        <ele>167.004</ele>
        <time>2013-08-05T15:24:50Z</time>
      </trkpt>
      <trkpt lat="48.75201" lon="2.05073">
        <ele>166.619</ele>
        <time>2013-08-05T15:24:55Z</time>
      </trkpt>
      <trkpt lat="48.75157" lon="2.05064">
        <ele>164.475</ele>
        <time>2013-08-05T15:25:01Z</time>
      </trkpt>
      <trkpt lat="48.75115" lon="2.05054">
        <ele>162.393</ele>
        <time>2013-08-05T15:25:06Z</time>
      </trkpt>
      <trkpt lat="48.75099" lon="2.05051">
        <ele>161.724</ele>
        <time>2013-08-05T15:25:08Z</time>
      </trkpt>
      <trkpt lat="48.75071" lon="2.05066">
        <ele>160.018</ele>
        <time>2013-08-05T15:25:12Z</time>
      </trkpt>
      <trkpt lat="48.75062" lon="2.051">
        <ele>158.389</ele>
        <time>2013-08-05T15:25:15Z</time>
      </trkpt>
      <trkpt lat="48.7506" lon="2.05114">
        <ele>157.858</ele>
        <time>2013-08-05T15:25:16Z</time>
      </trkpt>
      <trkpt lat="48.75044" lon="2.05149">
        <ele>154.258</ele>
        <time>2013-08-05T15:25:21Z</time>
      </trkpt>
      <trkpt lat="48.7503" lon="2.0514">
        <ele>153.368</ele>
        <time>2013-08-05T15:25:23Z</time>
      </trkpt>
      <trkpt lat="48.75022" lon="2.05131">
        <ele>152.456</ele>
        <time>2013-08-05T15:25:24Z</time>
      </trkpt>
      <trkpt lat="48.74995" lon="2.05105">
        <ele>149.766</ele>
        <time>2013-08-05T15:25:27Z</time>
      </trkpt>
      <trkpt lat="48.74961" lon="2.05031">
        <ele>145.72</ele>
        <time>2013-08-05T15:25:32Z</time>
      </trkpt>
      <trkpt lat="48.74933" lon="2.0497">
        <ele>141.923</ele>
        <time>2013-08-05T15:25:36Z</time>
      </trkpt>
      <trkpt lat="48.74894" lon="2.04923">
        <ele>138.453</ele>
        <time>2013-08-05T15:25:40Z</time>
      </trkpt>
      <trkpt lat="48.74885" lon="2.04915">
        <ele>137.816</ele>
        <time>2013-08-05T15:25:41Z</time>
      </trkpt>
      <trkpt lat="48.74852" lon="2.04912">
        <ele>136.827</ele>
        <time>2013-08-05T15:25:44Z</time>
      </trkpt>
      <trkpt lat="48.7484" lon="2.04928">
        <ele>136.838</ele>
        <time>2013-08-05T15:25:46Z</time>
      </trkpt>
      <trkpt lat="48.74835" lon="2.04938">
        <ele>136.945</ele>
        <time>2013-08-05T15:25:47Z</time>
      </trkpt>
      <trkpt lat="48.74803" lon="2.04996">
        <ele>137.558</ele>
        <time>2013-08-05T15:25:54Z</time>
      </trkpt>
      <trkpt lat="48.74785" lon="2.05029">
        <ele>138.172</ele>
        <time>2013-08-05T15:25:59Z</time>
      </trkpt>
      <trkpt lat="48.74779" lon="2.0504">
        <ele>138.524</ele>
        <time>2013-08-05T15:26:01Z</time>
      </trkpt>
      <trkpt lat="48.74773" lon="2.05057">
        <ele>139.328</ele>
        <time>2013-08-05T15:26:04Z</time>
      </trkpt>
      <trkpt lat="48.74774" lon="2.05084">
        <ele>140.381</ele>
        <time>2013-08-05T15:26:08Z</time>
      </trkpt>
      <trkpt lat="48.74776" lon="2.05098">
        <ele>140.636</ele>
        <time>2013-08-05T15:26:10Z</time>
      </trkpt>
      <trkpt lat="48.74778" lon="2.05112">
        <ele>140.707</ele>
        <time>2013-08-05T15:26:12Z</time>
      </trkpt>
      <trkpt lat="48.74778" lon="2.05162">
        <ele>140.597</ele>
        <time>2013-08-05T15:26:18Z</time>
      </trkpt>
      <trkpt lat="48.74779" lon="2.05212">
        <ele>140.229</ele>
        <time>2013-08-05T15:26:24Z</time>
      </trkpt>
      <trkpt lat="48.74781" lon="2.05235">
        <ele>140.029</ele>
        <time>2013-08-05T15:26:27Z</time>
      </trkpt>
      <trkpt lat="48.74786" lon="2.05258">
        <ele>139.974</ele>
        <time>2013-08-05T15:26:30Z</time>
      </trkpt>
      <trkpt lat="48.74788" lon="2.05273">
        <ele>140.014</ele>
        <time>2013-08-05T15:26:32Z</time>
      </trkpt>
      <trkpt lat="48.74789" lon="2.05294">
        <ele>140.227</ele>
        <time>2013-08-05T15:26:35Z</time>
      </trkpt>
      <trkpt lat="48.7478" lon="2.05348">
        <ele>141.283</ele>
        <time>2013-08-05T15:26:43Z</time>
      </trkpt>
      <trkpt lat="48.74767" lon="2.05393">
        <ele>141.826</ele>
        <time>2013-08-05T15:26:50Z</time>
      </trkpt>
      <trkpt lat="48.74765" lon="2.054">
        <ele>141.803</ele>
        <time>2013-08-05T15:26:51Z</time>
      </trkpt>
      <trkpt lat="48.74755" lon="2.05424">
        <ele>141.969</ele>
        <time>2013-08-05T15:26:55Z</time>
      </trkpt>
      <trkpt lat="48.74737" lon="2.05448">
        <ele>142.849</ele>
        <time>2013-08-05T15:27:01Z</time>
      </trkpt>
      <trkpt lat="48.74723" lon="2.05471">
        <ele>144.157</ele>
        <time>2013-08-05T15:27:08Z</time>
      </trkpt>
      <trkpt lat="48.74718" lon="2.05491">
        <ele>145.516</ele>
        <time>2013-08-05T15:27:14Z</time>
      </trkpt>
      <trkpt lat="48.74714" lon="2.05511">
        <ele>146.612</ele>
        <time>2013-08-05T15:27:19Z</time>
      </trkpt>
      <trkpt lat="48.74704" lon="2.05531">
        <ele>147.536</ele>
        <time>2013-08-05T15:27:24Z</time>
      </trkpt>
      <trkpt lat="48.74692" lon="2.0555">
        <ele>148.267</ele>
        <time>2013-08-05T15:27:29Z</time>
      </trkpt>
      <trkpt lat="48.74688" lon="2.05559">
        <ele>148.549</ele>
        <time>2013-08-05T15:27:31Z</time>
      </trkpt>
      <trkpt lat="48.74676" lon="2.05582">
        <ele>149.61</ele>
        <time>2013-08-05T15:27:37Z</time>
      </trkpt>
      <trkpt lat="48.74669" lon="2.05605">
        <ele>150.413</ele>
        <time>2013-08-05T15:27:42Z</time>
      </trkpt>
      <trkpt lat="48.74657" lon="2.05635">
        <ele>151.459</ele>
        <time>2013-08-05T15:27:49Z</time>
      </trkpt>
      <trkpt lat="48.74645" lon="2.05652">
        <ele>151.86</ele>
        <time>2013-08-05T15:27:54Z</time>
      </trkpt>
      <trkpt lat="48.74627" lon="2.0566">
        <ele>152.337</ele>
        <time>2013-08-05T15:27:59Z</time>
      </trkpt>
      <trkpt lat="48.74606" lon="2.05654">
        <ele>152.769</ele>
        <time>2013-08-05T15:28:05Z</time>
      </trkpt>
      <trkpt lat="48.74591" lon="2.05635">
        <ele>153.365</ele>
        <time>2013-08-05T15:28:11Z</time>
      </trkpt>
      <trkpt lat="48.74577" lon="2.05616">
        <ele>153.973</ele>
        <time>2013-08-05T15:28:17Z</time>
      </trkpt>
      <trkpt lat="48.74555" lon="2.05588">
        <ele>154.644</ele>
        <time>2013-08-05T15:28:26Z</time>
      </trkpt>
      <trkpt lat="48.74534" lon="2.05561">
        <ele>155.489</ele>
        <time>2013-08-05T15:28:35Z</time>
      </trkpt>
      <trkpt lat="48.74517" lon="2.05537">
        <ele>155.792</ele>
        <time>2013-08-05T15:28:43Z</time>
      </trkpt>
      <trkpt lat="48.74496" lon="2.05511">
        <ele>155.974</ele>
        <time>2013-08-05T15:28:52Z</time>
      </trkpt>
      <trkpt lat="48.74472" lon="2.05497">
        <ele>156.547</ele>
        <time>2013-08-05T15:29:00Z</time>
      </trkpt>
      <trkpt lat="48.7444" lon="2.05488">
        <ele>157.318</ele>
        <time>2013-08-05T15:29:10Z</time>
      </trkpt>
      <trkpt lat="48.74407" lon="2.05486">
        <ele>157.9</ele>
        <time>2013-08-05T15:29:20Z</time>
      </trkpt>
      <trkpt lat="48.74377" lon="2.05486">
        <ele>158.506</ele>
        <time>2013-08-05T15:29:29Z</time>
      </trkpt>
      <trkpt lat="48.74348" lon="2.05492">
        <ele>158.721</ele>
        <time>2013-08-05T15:29:38Z</time>
      </trkpt>
      <trkpt lat="48.74324" lon="2.05511">
        <ele>159.148</ele>
        <time>2013-08-05T15:29:46Z</time>
      </trkpt>
      <trkpt lat="48.74301" lon="2.05537">
        <ele>160.966</ele>
        <time>2013-08-05T15:29:55Z</time>
      </trkpt>
      <trkpt lat="48.74276" lon="2.05573">
        <ele>162.412</ele>
        <time>2013-08-05T15:30:06Z</time>
      </trkpt>
      <trkpt lat="48.74264" lon="2.05595">
        <ele>163.26</ele>
        <time>2013-08-05T15:30:12Z</time>
      </trkpt>
      <trkpt lat="48.74249" lon="2.05627">
        <ele>164.481</ele>
        <time>2013-08-05T15:30:20Z</time>
      </trkpt>
      <trkpt lat="48.74244" lon="2.05672">
        <ele>164.183</ele>
        <time>2013-08-05T15:30:28Z</time>
      </trkpt>
      <trkpt lat="48.74241" lon="2.05703">
        <ele>164.232</ele>
        <time>2013-08-05T15:30:33Z</time>
      </trkpt>
      <trkpt lat="48.74241" lon="2.0573">
        <ele>164.108</ele>
        <time>2013-08-05T15:30:37Z</time>
      </trkpt>
      <trkpt lat="48.74242" lon="2.05756">
        <ele>164.006</ele>
        <time>2013-08-05T15:30:41Z</time>
      </trkpt>
      <trkpt lat="48.74235" lon="2.05774">
        <ele>163.979</ele>
        <time>2013-08-05T15:30:45Z</time>
      </trkpt>
      <trkpt lat="48.74232" lon="2.05775">
        <ele>164.027</ele>
        <time>2013-08-05T15:30:46Z</time>
      </trkpt>
      <trkpt lat="48.74201" lon="2.05776">
        <ele>165.04</ele>
        <time>2013-08-05T15:30:56Z</time>
      </trkpt>
      <trkpt lat="48.74182" lon="2.05773">
        <ele>165.698</ele>
        <time>2013-08-05T15:31:02Z</time>
      </trkpt>
      <trkpt lat="48.74155" lon="2.05775">
        <ele>166.768</ele>
        <time>2013-08-05T15:31:10Z</time>
      </trkpt>
      <trkpt lat="48.74139" lon="2.05779">
        <ele>166.756</ele>
        <time>2013-08-05T15:31:16Z</time>
      </trkpt>
      <trkpt lat="48.7413" lon="2.05766">
        <ele>166.568</ele>
        <time>2013-08-05T15:31:22Z</time>
      </trkpt>
      <trkpt lat="48.74132" lon="2.05749">
        <ele>166.591</ele>
        <time>2013-08-05T15:31:27Z</time>
      </trkpt>
      <trkpt lat="48.74129" lon="2.05743">
        <ele>166.671</ele>
        <time>2013-08-05T15:31:29Z</time>
      </trkpt>
      <trkpt lat="48.74103" lon="2.05716">
        <ele>167.728</ele>
        <time>2013-08-05T15:31:39Z</time>
      </trkpt>
      <trkpt lat="48.74073" lon="2.0569">
        <ele>168.216</ele>
        <time>2013-08-05T15:31:49Z</time>
      </trkpt>
      <trkpt lat="48.74041" lon="2.05668">
        <ele>168.47</ele>
        <time>2013-08-05T15:31:59Z</time>
      </trkpt>
      <trkpt lat="48.74015" lon="2.05654">
        <ele>168.324</ele>
        <time>2013-08-05T15:32:07Z</time>
      </trkpt>
      <trkpt lat="48.73991" lon="2.0564">
        <ele>168.49</ele>
        <time>2013-08-05T15:32:14Z</time>
      </trkpt>
      <trkpt lat="48.73954" lon="2.05615">
        <ele>168.445</ele>
        <time>2013-08-05T15:32:25Z</time>
      </trkpt>
      <trkpt lat="48.73928" lon="2.05594">
        <ele>168.81</ele>
        <time>2013-08-05T15:32:33Z</time>
      </trkpt>
      <trkpt lat="48.73904" lon="2.05569">
        <ele>169.334</ele>
        <time>2013-08-05T15:32:41Z</time>
      </trkpt>
      <trkpt lat="48.73872" lon="2.05529">
        <ele>169.394</ele>
        <time>2013-08-05T15:32:52Z</time>
      </trkpt>
      <trkpt lat="48.73835" lon="2.05474">
        <ele>169.367</ele>
        <time>2013-08-05T15:33:06Z</time>
      </trkpt>
      <trkpt lat="48.73802" lon="2.05435">
        <ele>169.97</ele>
        <time>2013-08-05T15:33:17Z</time>
      </trkpt>
      <trkpt lat="48.73768" lon="2.05398">
        <ele>170.414</ele>
        <time>2013-08-05T15:33:28Z</time>
      </trkpt>
      <trkpt lat="48.73732" lon="2.05362">
        <ele>170.625</ele>
        <time>2013-08-05T15:33:39Z</time>
      </trkpt>
      <trkpt lat="48.73703" lon="2.0533">
        <ele>171.465</ele>
        <time>2013-08-05T15:33:48Z</time>
      </trkpt>
      <trkpt lat="48.73672" lon="2.05294">
        <ele>171.881</ele>
        <time>2013-08-05T15:33:58Z</time>
      </trkpt>
      <trkpt lat="48.73651" lon="2.05269">
        <ele>172.56</ele>
        <time>2013-08-05T15:34:06Z</time>
      </trkpt>
      <trkpt lat="48.73646" lon="2.05264">
        <ele>172.817</ele>
        <time>2013-08-05T15:34:09Z</time>
      </trkpt>
      <trkpt lat="48.73643" lon="2.05267">
        <ele>173.126</ele>
        <time>2013-08-05T15:34:14Z</time>
      </trkpt>
      <trkpt lat="48.73645" lon="2.0527">
        <ele>172.896</ele>
        <time>2013-08-05T15:34:37Z</time>
      </trkpt>
      <trkpt lat="48.73644" lon="2.05272">
        <ele>172.943</ele>
        <time>2013-08-05T15:34:41Z</time>
      </trkpt>
      <trkpt lat="48.73639" lon="2.05298">
        <ele>172.811</ele>
        <time>2013-08-05T15:34:48Z</time>
      </trkpt>
      <trkpt lat="48.73627" lon="2.05342">
        <ele>172.853</ele>
        <time>2013-08-05T15:34:56Z</time>
      </trkpt>
      <trkpt lat="48.7361" lon="2.05415">
        <ele>173.211</ele>
        <time>2013-08-05T15:35:07Z</time>
      </trkpt>
      <trkpt lat="48.73598" lon="2.05476">
        <ele>173.333</ele>
        <time>2013-08-05T15:35:15Z</time>
      </trkpt>
      <trkpt lat="48.73586" lon="2.05556">
        <ele>172.191</ele>
        <time>2013-08-05T15:35:24Z</time>
      </trkpt>
      <trkpt lat="48.73577" lon="2.05648">
        <ele>171.992</ele>
        <time>2013-08-05T15:35:34Z</time>
      </trkpt>
      <trkpt lat="48.73568" lon="2.05746">
        <ele>171.065</ele>
        <time>2013-08-05T15:35:44Z</time>
      </trkpt>
      <trkpt lat="48.73559" lon="2.05865">
        <ele>170.539</ele>
        <time>2013-08-05T15:35:55Z</time>
      </trkpt>
      <trkpt lat="48.73552" lon="2.05951">
        <ele>170.389</ele>
        <time>2013-08-05T15:36:03Z</time>
      </trkpt>
      <trkpt lat="48.73541" lon="2.06037">
        <ele>170.528</ele>
        <time>2013-08-05T15:36:11Z</time>
      </trkpt>
      <trkpt lat="48.73525" lon="2.06132">
        <ele>170.209</ele>
        <time>2013-08-05T15:36:20Z</time>
      </trkpt>
      <trkpt lat="48.73511" lon="2.06227">
        <ele>170.47</ele>
        <time>2013-08-05T15:36:29Z</time>
      </trkpt>
      <trkpt lat="48.73502" lon="2.06317">
        <ele>170.852</ele>
        <time>2013-08-05T15:36:38Z</time>
      </trkpt>
      <trkpt lat="48.73499" lon="2.06417">
        <ele>170.366</ele>
        <time>2013-08-05T15:36:48Z</time>
      </trkpt>
      <trkpt lat="48.73498" lon="2.06478">
        <ele>170.251</ele>
        <time>2013-08-05T15:36:54Z</time>
      </trkpt>
      <trkpt lat="48.73493" lon="2.06558">
        <ele>170.178</ele>
        <time>2013-08-05T15:37:02Z</time>
      </trkpt>
      <trkpt lat="48.73487" lon="2.06607">
        <ele>170.307</ele>
        <time>2013-08-05T15:37:07Z</time>
      </trkpt>
      <trkpt lat="48.73468" lon="2.06675">
        <ele>169.934</ele>
        <time>2013-08-05T15:37:15Z</time>
      </trkpt>
      <trkpt lat="48.73456" lon="2.06722">
        <ele>169.418</ele>
        <time>2013-08-05T15:37:21Z</time>
      </trkpt>
      <trkpt lat="48.73453" lon="2.06735">
        <ele>169.281</ele>
        <time>2013-08-05T15:37:23Z</time>
      </trkpt>
      <trkpt lat="48.73442" lon="2.06763">
        <ele>169.363</ele>
        <time>2013-08-05T15:37:28Z</time>
      </trkpt>
      <trkpt lat="48.73447" lon="2.068">
        <ele>169.062</ele>
        <time>2013-08-05T15:37:33Z</time>
      </trkpt>
      <trkpt lat="48.7345" lon="2.06833">
        <ele>168.567</ele>
        <time>2013-08-05T15:37:38Z</time>
      </trkpt>
      <trkpt lat="48.73443" lon="2.06869">
        <ele>168.514</ele>
        <time>2013-08-05T15:37:43Z</time>
      </trkpt>
      <trkpt lat="48.73437" lon="2.0691">
        <ele>168.93</ele>
        <time>2013-08-05T15:37:49Z</time>
      </trkpt>
      <trkpt lat="48.73431" lon="2.06968">
        <ele>169.249</ele>
        <time>2013-08-05T15:37:57Z</time>
      </trkpt>
      <trkpt lat="48.7342" lon="2.07042">
        <ele>169.277</ele>
        <time>2013-08-05T15:38:07Z</time>
      </trkpt>
      <trkpt lat="48.73406" lon="2.07099">
        <ele>169.016</ele>
        <time>2013-08-05T15:38:15Z</time>
      </trkpt>
      <trkpt lat="48.73391" lon="2.07136">
        <ele>169.542</ele>
        <time>2013-08-05T15:38:21Z</time>
      </trkpt>
      <trkpt lat="48.73386" lon="2.07148">
        <ele>169.605</ele>
        <time>2013-08-05T15:38:23Z</time>
      </trkpt>
      <trkpt lat="48.73374" lon="2.07166">
        <ele>169.642</ele>
        <time>2013-08-05T15:38:27Z</time>
      </trkpt>
      <trkpt lat="48.73334" lon="2.07193">
        <ele>169.469</ele>
        <time>2013-08-05T15:38:36Z</time>
      </trkpt>
      <trkpt lat="48.73295" lon="2.0722">
        <ele>169.945</ele>
        <time>2013-08-05T15:38:45Z</time>
      </trkpt>
      <trkpt lat="48.73252" lon="2.07242">
        <ele>169.801</ele>
        <time>2013-08-05T15:38:54Z</time>
      </trkpt>
      <trkpt lat="48.73202" lon="2.07266">
        <ele>169.54</ele>
        <time>2013-08-05T15:39:04Z</time>
      </trkpt>
      <trkpt lat="48.73161" lon="2.07287">
        <ele>169.623</ele>
        <time>2013-08-05T15:39:12Z</time>
      </trkpt>
      <trkpt lat="48.73147" lon="2.07296">
        <ele>169.578</ele>
        <time>2013-08-05T15:39:15Z</time>
      </trkpt>
      <trkpt lat="48.73108" lon="2.07338">
        <ele>169.587</ele>
        <time>2013-08-05T15:39:24Z</time>
      </trkpt>
      <trkpt lat="48.73084" lon="2.07389">
        <ele>169.204</ele>
        <time>2013-08-05T15:39:32Z</time>
      </trkpt>
      <trkpt lat="48.73062" lon="2.07442">
        <ele>168.927</ele>
        <time>2013-08-05T15:39:40Z</time>
      </trkpt>
      <trkpt lat="48.73037" lon="2.0751">
        <ele>168.737</ele>
        <time>2013-08-05T15:39:50Z</time>
      </trkpt>
      <trkpt lat="48.73014" lon="2.07571">
        <ele>168.655</ele>
        <time>2013-08-05T15:39:59Z</time>
      </trkpt>
      <trkpt lat="48.72985" lon="2.07627">
        <ele>168.283</ele>
        <time>2013-08-05T15:40:08Z</time>
      </trkpt>
      <trkpt lat="48.72967" lon="2.07685">
        <ele>168.409</ele>
        <time>2013-08-05T15:40:16Z</time>
      </trkpt>
      <trkpt lat="48.72953" lon="2.07736">
        <ele>167.955</ele>
        <time>2013-08-05T15:40:23Z</time>
      </trkpt>
      <trkpt lat="48.72933" lon="2.07817">
        <ele>167.941</ele>
        <time>2013-08-05T15:40:34Z</time>
      </trkpt>
      <trkpt lat="48.7292" lon="2.07855">
        <ele>168.158</ele>
        <time>2013-08-05T15:40:40Z</time>
      </trkpt>
      <trkpt lat="48.72917" lon="2.0789">
        <ele>168.224</ele>
        <time>2013-08-05T15:40:45Z</time>
      </trkpt>
      <trkpt lat="48.72918" lon="2.07897">
        <ele>168.17</ele>
        <time>2013-08-05T15:40:46Z</time>
      </trkpt>
      <trkpt lat="48.72918" lon="2.07928">
        <ele>168.033</ele>
        <time>2013-08-05T15:40:50Z</time>
      </trkpt>
      <trkpt lat="48.72908" lon="2.07979">
        <ele>168.279</ele>
        <time>2013-08-05T15:40:57Z</time>
      </trkpt>
      <trkpt lat="48.72887" lon="2.0803">
        <ele>168.502</ele>
        <time>2013-08-05T15:41:05Z</time>
      </trkpt>
      <trkpt lat="48.72864" lon="2.08086">
        <ele>168.908</ele>
        <time>2013-08-05T15:41:14Z</time>
      </trkpt>
      <trkpt lat="48.7286" lon="2.08109">
        <ele>169.306</ele>
        <time>2013-08-05T15:41:18Z</time>
      </trkpt>
      <trkpt lat="48.72853" lon="2.08121">
        <ele>169.618</ele>
        <time>2013-08-05T15:41:21Z</time>
      </trkpt>
      <trkpt lat="48.72847" lon="2.0813">
        <ele>169.755</ele>
        <time>2013-08-05T15:41:23Z</time>
      </trkpt>
      <trkpt lat="48.72832" lon="2.08139">
        <ele>169.939</ele>
        <time>2013-08-05T15:41:27Z</time>
      </trkpt>
      <trkpt lat="48.72797" lon="2.0815">
        <ele>169.873</ele>
        <time>2013-08-05T15:41:35Z</time>
      </trkpt>
      <trkpt lat="48.7278" lon="2.08156">
        <ele>169.91</ele>
        <time>2013-08-05T15:41:39Z</time>
      </trkpt>
      <trkpt lat="48.72744" lon="2.08166">
        <ele>170.093</ele>
        <time>2013-08-05T15:41:47Z</time>
      </trkpt>
      <trkpt lat="48.72726" lon="2.08172">
        <ele>169.997</ele>
        <time>2013-08-05T15:41:51Z</time>
      </trkpt>
      <trkpt lat="48.72706" lon="2.08174">
        <ele>170.091</ele>
        <time>2013-08-05T15:41:55Z</time>
      </trkpt>
      <trkpt lat="48.72686" lon="2.0819">
        <ele>170.121</ele>
        <time>2013-08-05T15:42:00Z</time>
      </trkpt>
      <trkpt lat="48.72673" lon="2.08193">
        <ele>170.166</ele>
        <time>2013-08-05T15:42:03Z</time>
      </trkpt>
      <trkpt lat="48.72628" lon="2.08206">
        <ele>169.733</ele>
        <time>2013-08-05T15:42:12Z</time>
      </trkpt>
      <trkpt lat="48.7258" lon="2.08224">
        <ele>169.732</ele>
        <time>2013-08-05T15:42:22Z</time>
      </trkpt>
      <trkpt lat="48.72553" lon="2.08234">
        <ele>170.112</ele>
        <time>2013-08-05T15:42:29Z</time>
      </trkpt>
      <trkpt lat="48.72522" lon="2.08246">
        <ele>170.086</ele>
        <time>2013-08-05T15:42:36Z</time>
      </trkpt>
      <trkpt lat="48.72492" lon="2.08259">
        <ele>169.88</ele>
        <time>2013-08-05T15:42:43Z</time>
      </trkpt>
      <trkpt lat="48.72453" lon="2.08273">
        <ele>169.532</ele>
        <time>2013-08-05T15:42:52Z</time>
      </trkpt>
      <trkpt lat="48.72421" lon="2.08288">
        <ele>169.17</ele>
        <time>2013-08-05T15:42:59Z</time>
      </trkpt>
      <trkpt lat="48.72416" lon="2.0829">
        <ele>169.019</ele>
        <time>2013-08-05T15:43:00Z</time>
      </trkpt>
      <trkpt lat="48.72401" lon="2.08291">
        <ele>168.79</ele>
        <time>2013-08-05T15:43:03Z</time>
      </trkpt>
      <trkpt lat="48.72382" lon="2.08298">
        <ele>168.494</ele>
        <time>2013-08-05T15:43:07Z</time>
      </trkpt>
      <trkpt lat="48.72373" lon="2.08304">
        <ele>168.354</ele>
        <time>2013-08-05T15:43:09Z</time>
      </trkpt>
      <trkpt lat="48.72315" lon="2.08325">
        <ele>167.412</ele>
        <time>2013-08-05T15:43:20Z</time>
      </trkpt>
      <trkpt lat="48.72278" lon="2.08339">
        <ele>167.337</ele>
        <time>2013-08-05T15:43:27Z</time>
      </trkpt>
      <trkpt lat="48.72243" lon="2.08357">
        <ele>166.872</ele>
        <time>2013-08-05T15:43:34Z</time>
      </trkpt>
      <trkpt lat="48.72215" lon="2.08377">
        <ele>166.631</ele>
        <time>2013-08-05T15:43:40Z</time>
      </trkpt>
      <trkpt lat="48.72205" lon="2.08394">
        <ele>166.419</ele>
        <time>2013-08-05T15:43:44Z</time>
      </trkpt>
      <trkpt lat="48.72209" lon="2.08414">
        <ele>166.044</ele>
        <time>2013-08-05T15:43:48Z</time>
      </trkpt>
      <trkpt lat="48.72208" lon="2.08431">
        <ele>165.959</ele>
        <time>2013-08-05T15:43:51Z</time>
      </trkpt>
      <trkpt lat="48.72207" lon="2.08442">
        <ele>165.796</ele>
        <time>2013-08-05T15:43:53Z</time>
      </trkpt>
      <trkpt lat="48.72194" lon="2.0845">
        <ele>165.552</ele>
        <time>2013-08-05T15:43:58Z</time>
      </trkpt>
      <trkpt lat="48.72191" lon="2.08449">
        <ele>165.52</ele>
        <time>2013-08-05T15:43:59Z</time>
      </trkpt>
      <trkpt lat="48.72186" lon="2.08447">
        <ele>165.614</ele>
        <time>2013-08-05T15:44:01Z</time>
      </trkpt>
      <trkpt lat="48.72172" lon="2.08456">
        <ele>165.695</ele>
        <time>2013-08-05T15:44:06Z</time>
      </trkpt>
      <trkpt lat="48.7214" lon="2.08485">
        <ele>164.836</ele>
        <time>2013-08-05T15:44:14Z</time>
      </trkpt>
      <trkpt lat="48.721" lon="2.08524">
        <ele>164.284</ele>
        <time>2013-08-05T15:44:23Z</time>
      </trkpt>
      <trkpt lat="48.7208" lon="2.0855">
        <ele>163.995</ele>
        <time>2013-08-05T15:44:28Z</time>
      </trkpt>
      <trkpt lat="48.72056" lon="2.08595">
        <ele>163.715</ele>
        <time>2013-08-05T15:44:36Z</time>
      </trkpt>
      <trkpt lat="48.72035" lon="2.08656">
        <ele>163.327</ele>
        <time>2013-08-05T15:44:45Z</time>
      </trkpt>
      <trkpt lat="48.72024" lon="2.08705">
        <ele>163.122</ele>
        <time>2013-08-05T15:44:52Z</time>
      </trkpt>
      <trkpt lat="48.72016" lon="2.08753">
        <ele>163.015</ele>
        <time>2013-08-05T15:44:59Z</time>
      </trkpt>
      <trkpt lat="48.72015" lon="2.08766">
        <ele>163.014</ele>
        <time>2013-08-05T15:45:01Z</time>
      </trkpt>
      <trkpt lat="48.72018" lon="2.08796">
        <ele>163.412</ele>
        <time>2013-08-05T15:45:07Z</time>
      </trkpt>
      <trkpt lat="48.72019" lon="2.08809">
        <ele>163.727</ele>
        <time>2013-08-05T15:45:11Z</time>
      </trkpt>
      <trkpt lat="48.72017" lon="2.08822">
        <ele>163.73</ele>
        <time>2013-08-05T15:45:14Z</time>
      </trkpt>
      <trkpt lat="48.72004" lon="2.08838">
        <ele>163.644</ele>
        <time>2013-08-05T15:45:19Z</time>
      </trkpt>
      <trkpt lat="48.71997" lon="2.08852">
        <ele>163.539</ele>
        <time>2013-08-05T15:45:22Z</time>
      </trkpt>
      <trkpt lat="48.71982" lon="2.08909">
        <ele>163.051</ele>
        <time>2013-08-05T15:45:31Z</time>
      </trkpt>
      <trkpt lat="48.71972" lon="2.08954">
        <ele>162.948</ele>
        <time>2013-08-05T15:45:38Z</time>
      </trkpt>
      <trkpt lat="48.71959" lon="2.0902">
        <ele>162.558</ele>
        <time>2013-08-05T15:45:48Z</time>
      </trkpt>
      <trkpt lat="48.71947" lon="2.09063">
        <ele>162.257</ele>
        <time>2013-08-05T15:45:55Z</time>
      </trkpt>
      <trkpt lat="48.71931" lon="2.0911">
        <ele>162.362</ele>
        <time>2013-08-05T15:46:03Z</time>
      </trkpt>
      <trkpt lat="48.71924" lon="2.09133">
        <ele>162.362</ele>
        <time>2013-08-05T15:46:07Z</time>
      </trkpt>
      <trkpt lat="48.71906" lon="2.09181">
        <ele>162.015</ele>
        <time>2013-08-05T15:46:16Z</time>
      </trkpt>
      <trkpt lat="48.71897" lon="2.09207">
        <ele>161.813</ele>
        <time>2013-08-05T15:46:21Z</time>
      </trkpt>
      <trkpt lat="48.719" lon="2.09219">
        <ele>161.672</ele>
        <time>2013-08-05T15:46:25Z</time>
      </trkpt>
      <trkpt lat="48.71904" lon="2.09223">
        <ele>161.654</ele>
        <time>2013-08-05T15:46:27Z</time>
      </trkpt>
      <trkpt lat="48.71913" lon="2.09223">
        <ele>162.151</ele>
        <time>2013-08-05T15:46:32Z</time>
      </trkpt>
      <trkpt lat="48.71916" lon="2.09226">
        <ele>162.461</ele>
        <time>2013-08-05T15:46:34Z</time>
      </trkpt>
      <trkpt lat="48.7192" lon="2.09225">
        <ele>162.861</ele>
        <time>2013-08-05T15:46:38Z</time>
      </trkpt>
      <trkpt lat="48.7192" lon="2.09225">
        <ele>162.817</ele>
        <time>2013-08-05T15:46:41Z</time>
      </trkpt>
    </trkseg>
  </trk>
</gpx>